<?xml version="1.0" encoding="UTF-8" standalone="no" ?>
<gpx xmlns="http://www.topografix.com/GPX/1/1" xmlns:xsi="http://www.w3.org/2001/XMLSchema-instance" xsi:schemaLocation="http://www.topografix.com/GPX/1/1 http://www.topografix.com/GPX/1/1/gpx.xsd" version="1.1" creator="VisuGPX - https://www.visugpx.com">
  <metadata>
    <name>CP trace 4-Le russey-Charquemont-Le russey</name>
  </metadata>
  <trk>
    <name><![CDATA[Sortie vtt]]></name>
    <trkseg>
      <trkpt lat="47.16251" lon="6.72913">
        <ele>876.2</ele>
        <time>2019-08-06T17:11:52Z</time>
      </trkpt>
      <trkpt lat="47.16233" lon="6.72893">
        <ele>877</ele>
        <time>2019-08-06T17:12:15Z</time>
      </trkpt>
      <trkpt lat="47.16213" lon="6.729">
        <ele>876.6</ele>
        <time>2019-08-06T17:12:25Z</time>
      </trkpt>
      <trkpt lat="47.16194" lon="6.72919">
        <ele>876.8</ele>
        <time>2019-08-06T17:12:26Z</time>
      </trkpt>
      <trkpt lat="47.16185" lon="6.7293">
        <ele>876.9</ele>
        <time>2019-08-06T17:12:30Z</time>
      </trkpt>
      <trkpt lat="47.16183" lon="6.72932">
        <ele>876.9</ele>
        <time>2019-08-06T17:12:31Z</time>
      </trkpt>
      <trkpt lat="47.16176" lon="6.72942">
        <ele>877</ele>
        <time>2019-08-06T17:12:34Z</time>
      </trkpt>
      <trkpt lat="47.16162" lon="6.72966">
        <ele>877</ele>
        <time>2019-08-06T17:12:44Z</time>
      </trkpt>
      <trkpt lat="47.16146" lon="6.73">
        <ele>876.9</ele>
        <time>2019-08-06T17:12:58Z</time>
      </trkpt>
      <trkpt lat="47.1613" lon="6.73036">
        <ele>877.3</ele>
        <time>2019-08-06T17:13:01Z</time>
      </trkpt>
      <trkpt lat="47.16124" lon="6.73048">
        <ele>877.5</ele>
        <time>2019-08-06T17:13:07Z</time>
      </trkpt>
      <trkpt lat="47.16099" lon="6.73097">
        <ele>877.8</ele>
        <time>2019-08-06T17:13:22Z</time>
      </trkpt>
      <trkpt lat="47.16085" lon="6.73129">
        <ele>877.7</ele>
        <time>2019-08-06T17:13:38Z</time>
      </trkpt>
      <trkpt lat="47.16055" lon="6.73197">
        <ele>880.3</ele>
        <time>2019-08-06T17:13:45Z</time>
      </trkpt>
      <trkpt lat="47.16041" lon="6.73228">
        <ele>881.2</ele>
        <time>2019-08-06T17:14:00Z</time>
      </trkpt>
      <trkpt lat="47.16007" lon="6.73295">
        <ele>882.6</ele>
        <time>2019-08-06T17:14:12Z</time>
      </trkpt>
      <trkpt lat="47.15964" lon="6.73343">
        <ele>882.9</ele>
        <time>2019-08-06T17:14:16Z</time>
      </trkpt>
      <trkpt lat="47.15945" lon="6.73355">
        <ele>884.4</ele>
        <time>2019-08-06T17:14:33Z</time>
      </trkpt>
      <trkpt lat="47.15942" lon="6.73366">
        <ele>884.3</ele>
        <time>2019-08-06T17:17:43Z</time>
      </trkpt>
      <trkpt lat="47.15942" lon="6.73378">
        <ele>884</ele>
        <time>2019-08-06T17:17:46Z</time>
      </trkpt>
      <trkpt lat="47.15948" lon="6.73461">
        <ele>884.5</ele>
        <time>2019-08-06T17:19:22Z</time>
      </trkpt>
      <trkpt lat="47.15962" lon="6.73545">
        <ele>886</ele>
        <time>2019-08-06T17:19:26Z</time>
      </trkpt>
      <trkpt lat="47.1598" lon="6.73626">
        <ele>886.9</ele>
        <time>2019-08-06T17:19:33Z</time>
      </trkpt>
      <trkpt lat="47.15995" lon="6.73683">
        <ele>887.3</ele>
        <time>2019-08-06T17:19:36Z</time>
      </trkpt>
      <trkpt lat="47.16014" lon="6.73744">
        <ele>888.3</ele>
        <time>2019-08-06T17:19:46Z</time>
      </trkpt>
      <trkpt lat="47.1603" lon="6.73803">
        <ele>888.8</ele>
        <time>2019-08-06T17:20:03Z</time>
      </trkpt>
      <trkpt lat="47.1603" lon="6.73895">
        <ele>888.9</ele>
        <time>2019-08-06T17:20:10Z</time>
      </trkpt>
      <trkpt lat="47.16029" lon="6.73986">
        <ele>886.9</ele>
        <time>2019-08-06T17:20:15Z</time>
      </trkpt>
      <trkpt lat="47.16033" lon="6.74143">
        <ele>883.8</ele>
        <time>2019-08-06T17:20:29Z</time>
      </trkpt>
      <trkpt lat="47.16035" lon="6.74232">
        <ele>882.1</ele>
        <time>2019-08-06T17:20:36Z</time>
      </trkpt>
      <trkpt lat="47.16039" lon="6.74393">
        <ele>882.2</ele>
        <time>2019-08-06T17:20:37Z</time>
      </trkpt>
      <trkpt lat="47.16044" lon="6.74539">
        <ele>884.4</ele>
        <time>2019-08-06T17:20:55Z</time>
      </trkpt>
      <trkpt lat="47.16047" lon="6.74623">
        <ele>882.6</ele>
        <time>2019-08-06T17:20:59Z</time>
      </trkpt>
      <trkpt lat="47.16052" lon="6.74702">
        <ele>881.5</ele>
        <time>2019-08-06T17:21:03Z</time>
      </trkpt>
      <trkpt lat="47.16057" lon="6.74757">
        <ele>881</ele>
        <time>2019-08-06T17:21:14Z</time>
      </trkpt>
      <trkpt lat="47.16051" lon="6.74807">
        <ele>880</ele>
        <time>2019-08-06T17:21:26Z</time>
      </trkpt>
      <trkpt lat="47.16032" lon="6.74865">
        <ele>878</ele>
        <time>2019-08-06T17:21:31Z</time>
      </trkpt>
      <trkpt lat="47.1598" lon="6.74821">
        <ele>876.8</ele>
        <time>2019-08-06T17:21:34Z</time>
      </trkpt>
      <trkpt lat="47.15964" lon="6.74809">
        <ele>877.1</ele>
        <time>2019-08-06T17:21:49Z</time>
      </trkpt>
      <trkpt lat="47.15943" lon="6.74791">
        <ele>877.1</ele>
        <time>2019-08-06T17:22:04Z</time>
      </trkpt>
      <trkpt lat="47.15921" lon="6.74756">
        <ele>877.1</ele>
        <time>2019-08-06T17:22:12Z</time>
      </trkpt>
      <trkpt lat="47.15883" lon="6.74702">
        <ele>878.2</ele>
        <time>2019-08-06T17:22:29Z</time>
      </trkpt>
      <trkpt lat="47.15858" lon="6.74662">
        <ele>879.3</ele>
        <time>2019-08-06T17:22:36Z</time>
      </trkpt>
      <trkpt lat="47.15829" lon="6.746">
        <ele>878.2</ele>
        <time>2019-08-06T17:22:53Z</time>
      </trkpt>
      <trkpt lat="47.15812" lon="6.74575">
        <ele>878.4</ele>
        <time>2019-08-06T17:23:00Z</time>
      </trkpt>
      <trkpt lat="47.15804" lon="6.74548">
        <ele>878.2</ele>
        <time>2019-08-06T17:23:17Z</time>
      </trkpt>
      <trkpt lat="47.15793" lon="6.74501">
        <ele>878.3</ele>
        <time>2019-08-06T17:25:47Z</time>
      </trkpt>
      <trkpt lat="47.15782" lon="6.7447">
        <ele>879.2</ele>
        <time>2019-08-06T17:25:57Z</time>
      </trkpt>
      <trkpt lat="47.1576" lon="6.74415">
        <ele>879.2</ele>
        <time>2019-08-06T17:26:05Z</time>
      </trkpt>
      <trkpt lat="47.15742" lon="6.74384">
        <ele>878.6</ele>
        <time>2019-08-06T17:26:16Z</time>
      </trkpt>
      <trkpt lat="47.15724" lon="6.74372">
        <ele>878.9</ele>
        <time>2019-08-06T17:27:55Z</time>
      </trkpt>
      <trkpt lat="47.15671" lon="6.74356">
        <ele>878.6</ele>
        <time>2019-08-06T17:28:03Z</time>
      </trkpt>
      <trkpt lat="47.15653" lon="6.74348">
        <ele>879</ele>
        <time>2019-08-06T17:28:18Z</time>
      </trkpt>
      <trkpt lat="47.15634" lon="6.7434">
        <ele>879.3</ele>
        <time>2019-08-06T17:28:38Z</time>
      </trkpt>
      <trkpt lat="47.15605" lon="6.74331">
        <ele>879.5</ele>
        <time>2019-08-06T17:28:55Z</time>
      </trkpt>
      <trkpt lat="47.15593" lon="6.7433">
        <ele>879.7</ele>
        <time>2019-08-06T17:29:18Z</time>
      </trkpt>
      <trkpt lat="47.15555" lon="6.74336">
        <ele>879.5</ele>
        <time>2019-08-06T17:29:59Z</time>
      </trkpt>
      <trkpt lat="47.15503" lon="6.74357">
        <ele>879.3</ele>
        <time>2019-08-06T17:30:05Z</time>
      </trkpt>
      <trkpt lat="47.15483" lon="6.74358">
        <ele>879.8</ele>
        <time>2019-08-06T17:30:07Z</time>
      </trkpt>
      <trkpt lat="47.15469" lon="6.74355">
        <ele>880.4</ele>
        <time>2019-08-06T17:30:12Z</time>
      </trkpt>
      <trkpt lat="47.15437" lon="6.74348">
        <ele>882.6</ele>
        <time>2019-08-06T17:30:22Z</time>
      </trkpt>
      <trkpt lat="47.15424" lon="6.74351">
        <ele>883.7</ele>
        <time>2019-08-06T17:30:30Z</time>
      </trkpt>
      <trkpt lat="47.15403" lon="6.74335">
        <ele>886.3</ele>
        <time>2019-08-06T17:31:00Z</time>
      </trkpt>
      <trkpt lat="47.15395" lon="6.74344">
        <ele>886.7</ele>
        <time>2019-08-06T17:31:06Z</time>
      </trkpt>
      <trkpt lat="47.15394" lon="6.74365">
        <ele>887.1</ele>
        <time>2019-08-06T17:31:14Z</time>
      </trkpt>
      <trkpt lat="47.15392" lon="6.74387">
        <ele>887.6</ele>
        <time>2019-08-06T17:33:06Z</time>
      </trkpt>
      <trkpt lat="47.15385" lon="6.7442">
        <ele>887.8</ele>
        <time>2019-08-06T17:34:15Z</time>
      </trkpt>
      <trkpt lat="47.1537" lon="6.74459">
        <ele>887.8</ele>
        <time>2019-08-06T17:34:34Z</time>
      </trkpt>
      <trkpt lat="47.15361" lon="6.74481">
        <ele>888</ele>
        <time>2019-08-06T17:34:36Z</time>
      </trkpt>
      <trkpt lat="47.15355" lon="6.74494">
        <ele>888.3</ele>
        <time>2019-08-06T17:34:57Z</time>
      </trkpt>
      <trkpt lat="47.15333" lon="6.74567">
        <ele>888.6</ele>
        <time>2019-08-06T17:35:02Z</time>
      </trkpt>
      <trkpt lat="47.15326" lon="6.74648">
        <ele>890.4</ele>
        <time>2019-08-06T17:35:11Z</time>
      </trkpt>
      <trkpt lat="47.1532" lon="6.7469">
        <ele>891.9</ele>
        <time>2019-08-06T17:35:22Z</time>
      </trkpt>
      <trkpt lat="47.15313" lon="6.74771">
        <ele>893</ele>
        <time>2019-08-06T17:35:35Z</time>
      </trkpt>
      <trkpt lat="47.15303" lon="6.74801">
        <ele>893</ele>
        <time>2019-08-06T17:35:41Z</time>
      </trkpt>
      <trkpt lat="47.15264" lon="6.74858">
        <ele>892.5</ele>
        <time>2019-08-06T17:35:51Z</time>
      </trkpt>
      <trkpt lat="47.15249" lon="6.74874">
        <ele>892.7</ele>
        <time>2019-08-06T17:35:57Z</time>
      </trkpt>
      <trkpt lat="47.15259" lon="6.74945">
        <ele>887.4</ele>
        <time>2019-08-06T17:36:01Z</time>
      </trkpt>
      <trkpt lat="47.1528" lon="6.75025">
        <ele>891</ele>
        <time>2019-08-06T17:36:03Z</time>
      </trkpt>
      <trkpt lat="47.15286" lon="6.75058">
        <ele>892.1</ele>
        <time>2019-08-06T17:36:28Z</time>
      </trkpt>
      <trkpt lat="47.15296" lon="6.75125">
        <ele>896</ele>
        <time>2019-08-06T17:36:39Z</time>
      </trkpt>
      <trkpt lat="47.1531" lon="6.75211">
        <ele>900.2</ele>
        <time>2019-08-06T17:36:47Z</time>
      </trkpt>
      <trkpt lat="47.15319" lon="6.75262">
        <ele>903.7</ele>
        <time>2019-08-06T17:36:50Z</time>
      </trkpt>
      <trkpt lat="47.15327" lon="6.75312">
        <ele>908.4</ele>
        <time>2019-08-06T17:37:07Z</time>
      </trkpt>
      <trkpt lat="47.15337" lon="6.75357">
        <ele>912.1</ele>
        <time>2019-08-06T17:37:11Z</time>
      </trkpt>
      <trkpt lat="47.15359" lon="6.75427">
        <ele>915.4</ele>
        <time>2019-08-06T17:37:20Z</time>
      </trkpt>
      <trkpt lat="47.15375" lon="6.75474">
        <ele>916.2</ele>
        <time>2019-08-06T17:37:28Z</time>
      </trkpt>
      <trkpt lat="47.15403" lon="6.75542">
        <ele>917</ele>
        <time>2019-08-06T17:37:36Z</time>
      </trkpt>
      <trkpt lat="47.15432" lon="6.75602">
        <ele>916.7</ele>
        <time>2019-08-06T17:37:43Z</time>
      </trkpt>
      <trkpt lat="47.15462" lon="6.75663">
        <ele>916.1</ele>
        <time>2019-08-06T17:37:48Z</time>
      </trkpt>
      <trkpt lat="47.15474" lon="6.75685">
        <ele>915.2</ele>
        <time>2019-08-06T17:37:50Z</time>
      </trkpt>
      <trkpt lat="47.15506" lon="6.75747">
        <ele>914.9</ele>
        <time>2019-08-06T17:37:57Z</time>
      </trkpt>
      <trkpt lat="47.15526" lon="6.7578">
        <ele>902.8</ele>
        <time>2019-08-06T17:38:03Z</time>
      </trkpt>
      <trkpt lat="47.15563" lon="6.75843">
        <ele>903.1</ele>
        <time>2019-08-06T17:38:10Z</time>
      </trkpt>
      <trkpt lat="47.156" lon="6.7591">
        <ele>904</ele>
        <time>2019-08-06T17:38:16Z</time>
      </trkpt>
      <trkpt lat="47.15628" lon="6.75961">
        <ele>905.1</ele>
        <time>2019-08-06T17:38:18Z</time>
      </trkpt>
      <trkpt lat="47.15661" lon="6.76026">
        <ele>914.4</ele>
        <time>2019-08-06T17:38:20Z</time>
      </trkpt>
      <trkpt lat="47.15681" lon="6.76067">
        <ele>912.4</ele>
        <time>2019-08-06T17:40:22Z</time>
      </trkpt>
      <trkpt lat="47.15693" lon="6.76089">
        <ele>912</ele>
        <time>2019-08-06T17:40:31Z</time>
      </trkpt>
      <trkpt lat="47.15708" lon="6.76102">
        <ele>911.6</ele>
        <time>2019-08-06T17:40:39Z</time>
      </trkpt>
      <trkpt lat="47.15721" lon="6.76104">
        <ele>911</ele>
        <time>2019-08-06T17:40:43Z</time>
      </trkpt>
      <trkpt lat="47.15724" lon="6.76088">
        <ele>911.4</ele>
        <time>2019-08-06T17:40:51Z</time>
      </trkpt>
      <trkpt lat="47.15743" lon="6.76111">
        <ele>911</ele>
        <time>2019-08-06T17:41:06Z</time>
      </trkpt>
      <trkpt lat="47.15761" lon="6.76175">
        <ele>907.4</ele>
        <time>2019-08-06T17:41:11Z</time>
      </trkpt>
      <trkpt lat="47.15784" lon="6.76249">
        <ele>905.6</ele>
        <time>2019-08-06T17:41:21Z</time>
      </trkpt>
      <trkpt lat="47.15808" lon="6.76328">
        <ele>903.7</ele>
        <time>2019-08-06T17:41:26Z</time>
      </trkpt>
      <trkpt lat="47.15831" lon="6.76398">
        <ele>901.3</ele>
        <time>2019-08-06T17:41:30Z</time>
      </trkpt>
      <trkpt lat="47.15837" lon="6.76418">
        <ele>901.2</ele>
        <time>2019-08-06T17:41:40Z</time>
      </trkpt>
      <trkpt lat="47.15879" lon="6.76406">
        <ele>903</ele>
        <time>2019-08-06T17:41:44Z</time>
      </trkpt>
      <trkpt lat="47.15927" lon="6.7637">
        <ele>902.5</ele>
        <time>2019-08-06T17:41:51Z</time>
      </trkpt>
      <trkpt lat="47.15951" lon="6.76345">
        <ele>902.1</ele>
        <time>2019-08-06T17:42:43Z</time>
      </trkpt>
      <trkpt lat="47.15998" lon="6.76306">
        <ele>899.5</ele>
        <time>2019-08-06T17:42:49Z</time>
      </trkpt>
      <trkpt lat="47.16047" lon="6.76264">
        <ele>891.8</ele>
        <time>2019-08-06T17:42:51Z</time>
      </trkpt>
      <trkpt lat="47.1609" lon="6.7619">
        <ele>891</ele>
        <time>2019-08-06T17:43:01Z</time>
      </trkpt>
      <trkpt lat="47.16109" lon="6.76239">
        <ele>889.3</ele>
        <time>2019-08-06T17:43:33Z</time>
      </trkpt>
      <trkpt lat="47.16127" lon="6.76291">
        <ele>895</ele>
        <time>2019-08-06T17:43:39Z</time>
      </trkpt>
      <trkpt lat="47.16153" lon="6.76317">
        <ele>895</ele>
        <time>2019-08-06T17:44:03Z</time>
      </trkpt>
      <trkpt lat="47.16196" lon="6.76337">
        <ele>895</ele>
        <time>2019-08-06T17:45:12Z</time>
      </trkpt>
      <trkpt lat="47.16242" lon="6.76356">
        <ele>894</ele>
        <time>2019-08-06T17:45:14Z</time>
      </trkpt>
      <trkpt lat="47.1629" lon="6.76359">
        <ele>890.7</ele>
        <time>2019-08-06T17:45:18Z</time>
      </trkpt>
      <trkpt lat="47.16299" lon="6.76362">
        <ele>890.8</ele>
        <time>2019-08-06T17:45:34Z</time>
      </trkpt>
      <trkpt lat="47.16329" lon="6.76371">
        <ele>890.7</ele>
        <time>2019-08-06T17:45:36Z</time>
      </trkpt>
      <trkpt lat="47.1634" lon="6.76377">
        <ele>890.5</ele>
        <time>2019-08-06T17:45:43Z</time>
      </trkpt>
      <trkpt lat="47.1636" lon="6.76392">
        <ele>890.7</ele>
        <time>2019-08-06T17:45:58Z</time>
      </trkpt>
      <trkpt lat="47.16378" lon="6.76359">
        <ele>887</ele>
        <time>2019-08-06T17:46:01Z</time>
      </trkpt>
      <trkpt lat="47.16386" lon="6.76347">
        <ele>886.8</ele>
        <time>2019-08-06T17:46:08Z</time>
      </trkpt>
      <trkpt lat="47.16408" lon="6.76308">
        <ele>890.8</ele>
        <time>2019-08-06T17:46:31Z</time>
      </trkpt>
      <trkpt lat="47.16453" lon="6.76254">
        <ele>890.8</ele>
        <time>2019-08-06T17:46:44Z</time>
      </trkpt>
      <trkpt lat="47.16479" lon="6.76232">
        <ele>885.4</ele>
        <time>2019-08-06T17:47:47Z</time>
      </trkpt>
      <trkpt lat="47.16526" lon="6.76188">
        <ele>882.8</ele>
        <time>2019-08-06T17:48:53Z</time>
      </trkpt>
      <trkpt lat="47.16551" lon="6.76167">
        <ele>881.2</ele>
        <time>2019-08-06T17:49:29Z</time>
      </trkpt>
      <trkpt lat="47.16563" lon="6.76153">
        <ele>884.4</ele>
        <time>2019-08-06T17:49:31Z</time>
      </trkpt>
      <trkpt lat="47.16531" lon="6.76126">
        <ele>886.3</ele>
        <time>2019-08-06T17:50:34Z</time>
      </trkpt>
      <trkpt lat="47.16513" lon="6.76109">
        <ele>887</ele>
        <time>2019-08-06T17:50:57Z</time>
      </trkpt>
      <trkpt lat="47.16476" lon="6.76038">
        <ele>885.7</ele>
        <time>2019-08-06T17:51:01Z</time>
      </trkpt>
      <trkpt lat="47.16451" lon="6.75983">
        <ele>884.5</ele>
        <time>2019-08-06T17:51:02Z</time>
      </trkpt>
      <trkpt lat="47.16434" lon="6.75939">
        <ele>885.5</ele>
        <time>2019-08-06T17:51:08Z</time>
      </trkpt>
      <trkpt lat="47.1643" lon="6.75922">
        <ele>886.3</ele>
        <time>2019-08-06T17:51:52Z</time>
      </trkpt>
      <trkpt lat="47.16424" lon="6.75898">
        <ele>885.6</ele>
        <time>2019-08-06T17:51:53Z</time>
      </trkpt>
      <trkpt lat="47.16418" lon="6.75879">
        <ele>884.9</ele>
        <time>2019-08-06T17:52:00Z</time>
      </trkpt>
      <trkpt lat="47.16409" lon="6.7584">
        <ele>886</ele>
        <time>2019-08-06T17:53:09Z</time>
      </trkpt>
      <trkpt lat="47.16402" lon="6.75813">
        <ele>885.7</ele>
        <time>2019-08-06T17:53:23Z</time>
      </trkpt>
      <trkpt lat="47.1639" lon="6.7577">
        <ele>879</ele>
        <time>2019-08-06T17:53:27Z</time>
      </trkpt>
      <trkpt lat="47.16371" lon="6.75745">
        <ele>885.8</ele>
        <time>2019-08-06T17:53:41Z</time>
      </trkpt>
      <trkpt lat="47.16357" lon="6.7573">
        <ele>886</ele>
        <time>2019-08-06T17:55:08Z</time>
      </trkpt>
      <trkpt lat="47.16358" lon="6.75711">
        <ele>886.4</ele>
        <time>2019-08-06T17:56:58Z</time>
      </trkpt>
      <trkpt lat="47.16357" lon="6.75659">
        <ele>888.2</ele>
        <time>2019-08-06T17:58:13Z</time>
      </trkpt>
      <trkpt lat="47.16352" lon="6.75637">
        <ele>888.4</ele>
        <time>2019-08-06T17:58:24Z</time>
      </trkpt>
      <trkpt lat="47.16334" lon="6.75624">
        <ele>889</ele>
        <time>2019-08-06T17:58:39Z</time>
      </trkpt>
      <trkpt lat="47.16336" lon="6.7558">
        <ele>893.1</ele>
        <time>2019-08-06T17:58:41Z</time>
      </trkpt>
      <trkpt lat="47.16336" lon="6.75529">
        <ele>890.6</ele>
        <time>2019-08-06T17:59:12Z</time>
      </trkpt>
      <trkpt lat="47.16335" lon="6.75491">
        <ele>891.2</ele>
        <time>2019-08-06T17:59:14Z</time>
      </trkpt>
      <trkpt lat="47.16324" lon="6.75421">
        <ele>887.8</ele>
        <time>2019-08-06T17:59:39Z</time>
      </trkpt>
      <trkpt lat="47.16318" lon="6.75371">
        <ele>878</ele>
        <time>2019-08-06T17:59:53Z</time>
      </trkpt>
      <trkpt lat="47.16321" lon="6.75364">
        <ele>882</ele>
        <time>2019-08-06T17:59:54Z</time>
      </trkpt>
      <trkpt lat="47.16325" lon="6.75343">
        <ele>881</ele>
        <time>2019-08-06T18:00:05Z</time>
      </trkpt>
      <trkpt lat="47.16345" lon="6.75347">
        <ele>878</ele>
        <time>2019-08-06T18:00:21Z</time>
      </trkpt>
      <trkpt lat="47.16384" lon="6.75346">
        <ele>877</ele>
        <time>2019-08-06T18:00:25Z</time>
      </trkpt>
      <trkpt lat="47.16449" lon="6.75349">
        <ele>875.2</ele>
        <time>2019-08-06T18:00:31Z</time>
      </trkpt>
      <trkpt lat="47.16494" lon="6.75349">
        <ele>874.2</ele>
        <time>2019-08-06T18:01:09Z</time>
      </trkpt>
      <trkpt lat="47.16519" lon="6.75346">
        <ele>873.5</ele>
        <time>2019-08-06T18:01:12Z</time>
      </trkpt>
      <trkpt lat="47.16564" lon="6.75342">
        <ele>873.8</ele>
        <time>2019-08-06T18:01:33Z</time>
      </trkpt>
      <trkpt lat="47.16608" lon="6.75355">
        <ele>874.4</ele>
        <time>2019-08-06T18:01:35Z</time>
      </trkpt>
      <trkpt lat="47.16663" lon="6.75371">
        <ele>874.8</ele>
        <time>2019-08-06T18:02:35Z</time>
      </trkpt>
      <trkpt lat="47.16683" lon="6.75379">
        <ele>875.2</ele>
        <time>2019-08-06T18:02:37Z</time>
      </trkpt>
      <trkpt lat="47.1672" lon="6.75397">
        <ele>874.1</ele>
        <time>2019-08-06T18:06:41Z</time>
      </trkpt>
      <trkpt lat="47.16746" lon="6.75402">
        <ele>874.2</ele>
        <time>2019-08-06T18:06:54Z</time>
      </trkpt>
      <trkpt lat="47.16759" lon="6.75409">
        <ele>874.5</ele>
        <time>2019-08-06T18:07:00Z</time>
      </trkpt>
      <trkpt lat="47.16813" lon="6.75475">
        <ele>876.1</ele>
        <time>2019-08-06T18:07:02Z</time>
      </trkpt>
      <trkpt lat="47.16857" lon="6.75527">
        <ele>877.3</ele>
        <time>2019-08-06T18:07:11Z</time>
      </trkpt>
      <trkpt lat="47.16901" lon="6.75578">
        <ele>878.3</ele>
        <time>2019-08-06T18:07:15Z</time>
      </trkpt>
      <trkpt lat="47.16936" lon="6.75618">
        <ele>879.2</ele>
        <time>2019-08-06T18:07:28Z</time>
      </trkpt>
      <trkpt lat="47.1699" lon="6.7569">
        <ele>879.2</ele>
        <time>2019-08-06T18:07:41Z</time>
      </trkpt>
      <trkpt lat="47.17024" lon="6.75742">
        <ele>879.2</ele>
        <time>2019-08-06T18:07:48Z</time>
      </trkpt>
      <trkpt lat="47.17041" lon="6.75769">
        <ele>879.3</ele>
        <time>2019-08-06T18:07:55Z</time>
      </trkpt>
      <trkpt lat="47.17075" lon="6.75834">
        <ele>880.1</ele>
        <time>2019-08-06T18:08:02Z</time>
      </trkpt>
      <trkpt lat="47.17106" lon="6.75893">
        <ele>880.1</ele>
        <time>2019-08-06T18:08:45Z</time>
      </trkpt>
      <trkpt lat="47.17145" lon="6.75949">
        <ele>879.5</ele>
        <time>2019-08-06T18:08:50Z</time>
      </trkpt>
      <trkpt lat="47.17182" lon="6.76013">
        <ele>878.1</ele>
        <time>2019-08-06T18:08:56Z</time>
      </trkpt>
      <trkpt lat="47.17207" lon="6.76065">
        <ele>877.3</ele>
        <time>2019-08-06T18:09:04Z</time>
      </trkpt>
      <trkpt lat="47.17218" lon="6.76085">
        <ele>877.2</ele>
        <time>2019-08-06T18:09:18Z</time>
      </trkpt>
      <trkpt lat="47.17253" lon="6.76155">
        <ele>877.2</ele>
        <time>2019-08-06T18:10:09Z</time>
      </trkpt>
      <trkpt lat="47.17277" lon="6.76221">
        <ele>877.2</ele>
        <time>2019-08-06T18:10:22Z</time>
      </trkpt>
      <trkpt lat="47.17308" lon="6.76293">
        <ele>876.8</ele>
        <time>2019-08-06T18:10:34Z</time>
      </trkpt>
      <trkpt lat="47.17341" lon="6.76342">
        <ele>876.2</ele>
        <time>2019-08-06T18:10:40Z</time>
      </trkpt>
      <trkpt lat="47.17345" lon="6.76361">
        <ele>876.2</ele>
        <time>2019-08-06T18:10:41Z</time>
      </trkpt>
      <trkpt lat="47.17328" lon="6.76383">
        <ele>876.3</ele>
        <time>2019-08-06T18:11:02Z</time>
      </trkpt>
      <trkpt lat="47.17291" lon="6.76433">
        <ele>875.3</ele>
        <time>2019-08-06T18:11:14Z</time>
      </trkpt>
      <trkpt lat="47.17268" lon="6.76462">
        <ele>875.3</ele>
        <time>2019-08-06T18:11:17Z</time>
      </trkpt>
      <trkpt lat="47.17227" lon="6.76512">
        <ele>877.4</ele>
        <time>2019-08-06T18:11:25Z</time>
      </trkpt>
      <trkpt lat="47.17187" lon="6.76556">
        <ele>878.3</ele>
        <time>2019-08-06T18:11:36Z</time>
      </trkpt>
      <trkpt lat="47.17147" lon="6.76603">
        <ele>879.7</ele>
        <time>2019-08-06T18:11:43Z</time>
      </trkpt>
      <trkpt lat="47.1712" lon="6.76687">
        <ele>879.9</ele>
        <time>2019-08-06T18:12:23Z</time>
      </trkpt>
      <trkpt lat="47.17081" lon="6.76839">
        <ele>880.5</ele>
        <time>2019-08-06T18:12:36Z</time>
      </trkpt>
      <trkpt lat="47.17058" lon="6.76918">
        <ele>878.7</ele>
        <time>2019-08-06T18:12:50Z</time>
      </trkpt>
      <trkpt lat="47.17018" lon="6.77046">
        <ele>877.4</ele>
        <time>2019-08-06T18:12:57Z</time>
      </trkpt>
      <trkpt lat="47.17" lon="6.771">
        <ele>878.2</ele>
        <time>2019-08-06T18:13:15Z</time>
      </trkpt>
      <trkpt lat="47.16979" lon="6.77174">
        <ele>880.3</ele>
        <time>2019-08-06T18:13:19Z</time>
      </trkpt>
      <trkpt lat="47.16961" lon="6.77221">
        <ele>880.5</ele>
        <time>2019-08-06T18:13:24Z</time>
      </trkpt>
      <trkpt lat="47.16948" lon="6.77263">
        <ele>878.5</ele>
        <time>2019-08-06T18:13:45Z</time>
      </trkpt>
      <trkpt lat="47.16928" lon="6.77313">
        <ele>878.1</ele>
        <time>2019-08-06T18:13:47Z</time>
      </trkpt>
      <trkpt lat="47.169" lon="6.77389">
        <ele>877.4</ele>
        <time>2019-08-06T18:14:02Z</time>
      </trkpt>
      <trkpt lat="47.16875" lon="6.77462">
        <ele>876.4</ele>
        <time>2019-08-06T18:14:09Z</time>
      </trkpt>
      <trkpt lat="47.16861" lon="6.77499">
        <ele>875.8</ele>
        <time>2019-08-06T18:14:14Z</time>
      </trkpt>
      <trkpt lat="47.16831" lon="6.77579">
        <ele>875.9</ele>
        <time>2019-08-06T18:14:22Z</time>
      </trkpt>
      <trkpt lat="47.16825" lon="6.776">
        <ele>875.5</ele>
        <time>2019-08-06T18:15:36Z</time>
      </trkpt>
      <trkpt lat="47.16824" lon="6.77621">
        <ele>875.5</ele>
        <time>2019-08-06T18:15:46Z</time>
      </trkpt>
      <trkpt lat="47.16829" lon="6.77638">
        <ele>875.3</ele>
        <time>2019-08-06T18:15:53Z</time>
      </trkpt>
      <trkpt lat="47.16855" lon="6.77709">
        <ele>875.7</ele>
        <time>2019-08-06T18:16:00Z</time>
      </trkpt>
      <trkpt lat="47.16869" lon="6.77744">
        <ele>875.9</ele>
        <time>2019-08-06T18:16:07Z</time>
      </trkpt>
      <trkpt lat="47.16897" lon="6.77814">
        <ele>876.1</ele>
        <time>2019-08-06T18:16:12Z</time>
      </trkpt>
      <trkpt lat="47.16909" lon="6.7785">
        <ele>876.1</ele>
        <time>2019-08-06T18:18:29Z</time>
      </trkpt>
      <trkpt lat="47.16919" lon="6.77879">
        <ele>876</ele>
        <time>2019-08-06T18:19:27Z</time>
      </trkpt>
      <trkpt lat="47.16944" lon="6.77954">
        <ele>875.8</ele>
        <time>2019-08-06T18:20:17Z</time>
      </trkpt>
      <trkpt lat="47.16952" lon="6.77982">
        <ele>875.3</ele>
        <time>2019-08-06T18:20:20Z</time>
      </trkpt>
      <trkpt lat="47.1696" lon="6.7802">
        <ele>874.1</ele>
        <time>2019-08-06T18:20:43Z</time>
      </trkpt>
      <trkpt lat="47.16961" lon="6.78032">
        <ele>873.9</ele>
        <time>2019-08-06T18:20:44Z</time>
      </trkpt>
      <trkpt lat="47.16998" lon="6.78113">
        <ele>872.3</ele>
        <time>2019-08-06T18:21:11Z</time>
      </trkpt>
      <trkpt lat="47.17049" lon="6.78191">
        <ele>872.1</ele>
        <time>2019-08-06T18:21:13Z</time>
      </trkpt>
      <trkpt lat="47.17072" lon="6.78211">
        <ele>871.2</ele>
        <time>2019-08-06T18:21:17Z</time>
      </trkpt>
      <trkpt lat="47.17121" lon="6.78247">
        <ele>871.9</ele>
        <time>2019-08-06T18:21:18Z</time>
      </trkpt>
      <trkpt lat="47.17147" lon="6.78272">
        <ele>873.2</ele>
        <time>2019-08-06T18:21:21Z</time>
      </trkpt>
      <trkpt lat="47.17156" lon="6.78282">
        <ele>873.5</ele>
        <time>2019-08-06T18:21:24Z</time>
      </trkpt>
      <trkpt lat="47.17191" lon="6.78345">
        <ele>873.8</ele>
        <time>2019-08-06T18:21:27Z</time>
      </trkpt>
      <trkpt lat="47.17212" lon="6.78413">
        <ele>873.8</ele>
        <time>2019-08-06T18:21:34Z</time>
      </trkpt>
      <trkpt lat="47.17239" lon="6.78496">
        <ele>873.8</ele>
        <time>2019-08-06T18:21:36Z</time>
      </trkpt>
      <trkpt lat="47.17254" lon="6.78532">
        <ele>871.6</ele>
        <time>2019-08-06T18:21:41Z</time>
      </trkpt>
      <trkpt lat="47.17275" lon="6.78554">
        <ele>871.2</ele>
        <time>2019-08-06T18:21:42Z</time>
      </trkpt>
      <trkpt lat="47.17296" lon="6.78564">
        <ele>869.8</ele>
        <time>2019-08-06T18:21:49Z</time>
      </trkpt>
      <trkpt lat="47.17316" lon="6.78574">
        <ele>868.6</ele>
        <time>2019-08-06T18:21:50Z</time>
      </trkpt>
      <trkpt lat="47.17357" lon="6.78633">
        <ele>868.6</ele>
        <time>2019-08-06T18:21:52Z</time>
      </trkpt>
      <trkpt lat="47.17373" lon="6.78653">
        <ele>867.7</ele>
        <time>2019-08-06T18:21:55Z</time>
      </trkpt>
      <trkpt lat="47.17373" lon="6.78654">
        <ele>867.6</ele>
        <time>2019-08-06T18:22:05Z</time>
      </trkpt>
      <trkpt lat="47.17373" lon="6.78654">
        <ele>867.6</ele>
        <time>2019-08-06T18:22:08Z</time>
      </trkpt>
      <trkpt lat="47.17394" lon="6.78691">
        <ele>867.2</ele>
        <time>2019-08-06T18:22:12Z</time>
      </trkpt>
      <trkpt lat="47.17412" lon="6.78713">
        <ele>866.5</ele>
        <time>2019-08-06T18:22:16Z</time>
      </trkpt>
      <trkpt lat="47.17435" lon="6.78734">
        <ele>866</ele>
        <time>2019-08-06T18:22:19Z</time>
      </trkpt>
      <trkpt lat="47.1745" lon="6.78747">
        <ele>865.8</ele>
        <time>2019-08-06T18:22:38Z</time>
      </trkpt>
      <trkpt lat="47.17495" lon="6.78784">
        <ele>864.9</ele>
        <time>2019-08-06T18:23:21Z</time>
      </trkpt>
      <trkpt lat="47.17507" lon="6.78793">
        <ele>864.8</ele>
        <time>2019-08-06T18:23:23Z</time>
      </trkpt>
      <trkpt lat="47.17541" lon="6.78818">
        <ele>864.7</ele>
        <time>2019-08-06T18:25:57Z</time>
      </trkpt>
      <trkpt lat="47.17594" lon="6.78871">
        <ele>863.8</ele>
        <time>2019-08-06T18:26:03Z</time>
      </trkpt>
      <trkpt lat="47.17623" lon="6.78907">
        <ele>863</ele>
        <time>2019-08-06T18:26:36Z</time>
      </trkpt>
      <trkpt lat="47.17641" lon="6.78957">
        <ele>862.9</ele>
        <time>2019-08-06T18:27:05Z</time>
      </trkpt>
      <trkpt lat="47.17659" lon="6.79016">
        <ele>862.4</ele>
        <time>2019-08-06T18:27:10Z</time>
      </trkpt>
      <trkpt lat="47.17679" lon="6.79032">
        <ele>861.6</ele>
        <time>2019-08-06T18:27:36Z</time>
      </trkpt>
      <trkpt lat="47.17698" lon="6.7904">
        <ele>862.1</ele>
        <time>2019-08-06T18:27:47Z</time>
      </trkpt>
      <trkpt lat="47.17719" lon="6.79079">
        <ele>861.8</ele>
        <time>2019-08-06T18:27:57Z</time>
      </trkpt>
      <trkpt lat="47.17744" lon="6.79155">
        <ele>860.7</ele>
        <time>2019-08-06T18:28:08Z</time>
      </trkpt>
      <trkpt lat="47.17761" lon="6.79217">
        <ele>860.9</ele>
        <time>2019-08-06T18:28:18Z</time>
      </trkpt>
      <trkpt lat="47.17776" lon="6.79278">
        <ele>860.2</ele>
        <time>2019-08-06T18:28:28Z</time>
      </trkpt>
      <trkpt lat="47.17789" lon="6.79315">
        <ele>859.2</ele>
        <time>2019-08-06T18:28:32Z</time>
      </trkpt>
      <trkpt lat="47.17804" lon="6.79356">
        <ele>860.6</ele>
        <time>2019-08-06T18:28:40Z</time>
      </trkpt>
      <trkpt lat="47.17818" lon="6.79365">
        <ele>861</ele>
        <time>2019-08-06T18:28:49Z</time>
      </trkpt>
      <trkpt lat="47.17834" lon="6.79367">
        <ele>861.3</ele>
        <time>2019-08-06T18:28:53Z</time>
      </trkpt>
      <trkpt lat="47.17849" lon="6.79355">
        <ele>862.1</ele>
        <time>2019-08-06T18:29:00Z</time>
      </trkpt>
      <trkpt lat="47.17889" lon="6.79402">
        <ele>864.3</ele>
        <time>2019-08-06T18:29:10Z</time>
      </trkpt>
      <trkpt lat="47.179" lon="6.79418">
        <ele>866.1</ele>
        <time>2019-08-06T18:29:21Z</time>
      </trkpt>
      <trkpt lat="47.17916" lon="6.79445">
        <ele>867.1</ele>
        <time>2019-08-06T18:30:07Z</time>
      </trkpt>
      <trkpt lat="47.17936" lon="6.79488">
        <ele>868.2</ele>
        <time>2019-08-06T18:30:19Z</time>
      </trkpt>
      <trkpt lat="47.17959" lon="6.79534">
        <ele>868.7</ele>
        <time>2019-08-06T18:30:34Z</time>
      </trkpt>
      <trkpt lat="47.17983" lon="6.79593">
        <ele>868.8</ele>
        <time>2019-08-06T18:30:46Z</time>
      </trkpt>
      <trkpt lat="47.18005" lon="6.79631">
        <ele>869</ele>
        <time>2019-08-06T18:30:56Z</time>
      </trkpt>
      <trkpt lat="47.18018" lon="6.79643">
        <ele>869.1</ele>
        <time>2019-08-06T18:31:04Z</time>
      </trkpt>
      <trkpt lat="47.18052" lon="6.79664">
        <ele>869.1</ele>
        <time>2019-08-06T18:31:08Z</time>
      </trkpt>
      <trkpt lat="47.18062" lon="6.7969">
        <ele>869.9</ele>
        <time>2019-08-06T18:31:12Z</time>
      </trkpt>
      <trkpt lat="47.18114" lon="6.79724">
        <ele>869.5</ele>
        <time>2019-08-06T18:31:17Z</time>
      </trkpt>
      <trkpt lat="47.18121" lon="6.79728">
        <ele>869.6</ele>
        <time>2019-08-06T18:31:30Z</time>
      </trkpt>
      <trkpt lat="47.18136" lon="6.79736">
        <ele>869.6</ele>
        <time>2019-08-06T18:31:42Z</time>
      </trkpt>
      <trkpt lat="47.18158" lon="6.79751">
        <ele>869.3</ele>
        <time>2019-08-06T18:31:54Z</time>
      </trkpt>
      <trkpt lat="47.18164" lon="6.79768">
        <ele>868.5</ele>
        <time>2019-08-06T18:32:07Z</time>
      </trkpt>
      <trkpt lat="47.18172" lon="6.79816">
        <ele>866.4</ele>
        <time>2019-08-06T18:32:29Z</time>
      </trkpt>
      <trkpt lat="47.18183" lon="6.79896">
        <ele>863.1</ele>
        <time>2019-08-06T18:33:25Z</time>
      </trkpt>
      <trkpt lat="47.18185" lon="6.79929">
        <ele>861.8</ele>
        <time>2019-08-06T18:33:41Z</time>
      </trkpt>
      <trkpt lat="47.1819" lon="6.79969">
        <ele>861.7</ele>
        <time>2019-08-06T18:33:56Z</time>
      </trkpt>
      <trkpt lat="47.18193" lon="6.79997">
        <ele>861.8</ele>
        <time>2019-08-06T18:34:03Z</time>
      </trkpt>
      <trkpt lat="47.18202" lon="6.80025">
        <ele>862.6</ele>
        <time>2019-08-06T18:34:14Z</time>
      </trkpt>
      <trkpt lat="47.18216" lon="6.80038">
        <ele>861</ele>
        <time>2019-08-06T18:34:28Z</time>
      </trkpt>
      <trkpt lat="47.18264" lon="6.80073">
        <ele>861.6</ele>
        <time>2019-08-06T18:34:41Z</time>
      </trkpt>
      <trkpt lat="47.18282" lon="6.80096">
        <ele>862.5</ele>
        <time>2019-08-06T18:34:50Z</time>
      </trkpt>
      <trkpt lat="47.18295" lon="6.80105">
        <ele>862.3</ele>
        <time>2019-08-06T18:34:57Z</time>
      </trkpt>
      <trkpt lat="47.18326" lon="6.80098">
        <ele>862.7</ele>
        <time>2019-08-06T18:35:02Z</time>
      </trkpt>
      <trkpt lat="47.18346" lon="6.80093">
        <ele>863.4</ele>
        <time>2019-08-06T18:35:10Z</time>
      </trkpt>
      <trkpt lat="47.18374" lon="6.80082">
        <ele>864.2</ele>
        <time>2019-08-06T18:35:20Z</time>
      </trkpt>
      <trkpt lat="47.18417" lon="6.80054">
        <ele>864.5</ele>
        <time>2019-08-06T18:35:27Z</time>
      </trkpt>
      <trkpt lat="47.18455" lon="6.80039">
        <ele>863</ele>
        <time>2019-08-06T18:35:31Z</time>
      </trkpt>
      <trkpt lat="47.18455" lon="6.80039">
        <ele>863</ele>
        <time>2019-08-06T18:35:46Z</time>
      </trkpt>
      <trkpt lat="47.185" lon="6.80036">
        <ele>862.7</ele>
        <time>2019-08-06T18:35:52Z</time>
      </trkpt>
      <trkpt lat="47.18515" lon="6.80029">
        <ele>863.2</ele>
        <time>2019-08-06T18:36:02Z</time>
      </trkpt>
      <trkpt lat="47.18564" lon="6.79982">
        <ele>864.1</ele>
        <time>2019-08-06T18:36:11Z</time>
      </trkpt>
      <trkpt lat="47.18594" lon="6.79957">
        <ele>868.4</ele>
        <time>2019-08-06T18:36:17Z</time>
      </trkpt>
      <trkpt lat="47.18617" lon="6.79935">
        <ele>869.3</ele>
        <time>2019-08-06T18:36:25Z</time>
      </trkpt>
      <trkpt lat="47.18625" lon="6.79916">
        <ele>871.7</ele>
        <time>2019-08-06T18:36:33Z</time>
      </trkpt>
      <trkpt lat="47.18629" lon="6.79885">
        <ele>872.5</ele>
        <time>2019-08-06T18:36:42Z</time>
      </trkpt>
      <trkpt lat="47.1864" lon="6.79866">
        <ele>873</ele>
        <time>2019-08-06T18:36:43Z</time>
      </trkpt>
      <trkpt lat="47.18653" lon="6.79871">
        <ele>874</ele>
        <time>2019-08-06T18:36:49Z</time>
      </trkpt>
      <trkpt lat="47.18675" lon="6.79898">
        <ele>876.6</ele>
        <time>2019-08-06T18:37:00Z</time>
      </trkpt>
      <trkpt lat="47.18691" lon="6.79918">
        <ele>875.9</ele>
        <time>2019-08-06T18:37:07Z</time>
      </trkpt>
      <trkpt lat="47.18722" lon="6.79949">
        <ele>877.4</ele>
        <time>2019-08-06T18:37:44Z</time>
      </trkpt>
      <trkpt lat="47.18735" lon="6.79948">
        <ele>878.8</ele>
        <time>2019-08-06T18:37:48Z</time>
      </trkpt>
      <trkpt lat="47.18771" lon="6.79919">
        <ele>880.9</ele>
        <time>2019-08-06T18:38:04Z</time>
      </trkpt>
      <trkpt lat="47.18777" lon="6.79958">
        <ele>880.9</ele>
        <time>2019-08-06T18:39:31Z</time>
      </trkpt>
      <trkpt lat="47.18801" lon="6.80034">
        <ele>881.7</ele>
        <time>2019-08-06T18:39:34Z</time>
      </trkpt>
      <trkpt lat="47.18837" lon="6.80112">
        <ele>883.4</ele>
        <time>2019-08-06T18:39:57Z</time>
      </trkpt>
      <trkpt lat="47.18873" lon="6.80175">
        <ele>882.2</ele>
        <time>2019-08-06T18:40:08Z</time>
      </trkpt>
      <trkpt lat="47.18928" lon="6.80258">
        <ele>881.2</ele>
        <time>2019-08-06T18:40:13Z</time>
      </trkpt>
      <trkpt lat="47.18943" lon="6.80304">
        <ele>880.8</ele>
        <time>2019-08-06T18:40:23Z</time>
      </trkpt>
      <trkpt lat="47.18953" lon="6.80387">
        <ele>878.6</ele>
        <time>2019-08-06T18:40:30Z</time>
      </trkpt>
      <trkpt lat="47.18964" lon="6.8045">
        <ele>878.3</ele>
        <time>2019-08-06T18:40:32Z</time>
      </trkpt>
      <trkpt lat="47.18967" lon="6.80473">
        <ele>878.5</ele>
        <time>2019-08-06T18:40:45Z</time>
      </trkpt>
      <trkpt lat="47.18963" lon="6.8049">
        <ele>878.5</ele>
        <time>2019-08-06T18:40:55Z</time>
      </trkpt>
      <trkpt lat="47.18952" lon="6.80504">
        <ele>877.1</ele>
        <time>2019-08-06T18:41:00Z</time>
      </trkpt>
      <trkpt lat="47.18905" lon="6.80551">
        <ele>873.3</ele>
        <time>2019-08-06T18:41:08Z</time>
      </trkpt>
      <trkpt lat="47.18876" lon="6.80606">
        <ele>871.6</ele>
        <time>2019-08-06T18:41:18Z</time>
      </trkpt>
      <trkpt lat="47.18867" lon="6.80634">
        <ele>871.4</ele>
        <time>2019-08-06T18:42:03Z</time>
      </trkpt>
      <trkpt lat="47.18863" lon="6.80657">
        <ele>871.3</ele>
        <time>2019-08-06T18:42:15Z</time>
      </trkpt>
      <trkpt lat="47.18873" lon="6.80717">
        <ele>867.1</ele>
        <time>2019-08-06T18:43:26Z</time>
      </trkpt>
      <trkpt lat="47.1887" lon="6.80763">
        <ele>872</ele>
        <time>2019-08-06T18:43:42Z</time>
      </trkpt>
      <trkpt lat="47.18865" lon="6.80839">
        <ele>873.1</ele>
        <time>2019-08-06T18:43:54Z</time>
      </trkpt>
      <trkpt lat="47.1886" lon="6.80859">
        <ele>873.2</ele>
        <time>2019-08-06T18:44:06Z</time>
      </trkpt>
      <trkpt lat="47.18809" lon="6.80948">
        <ele>875.4</ele>
        <time>2019-08-06T18:44:19Z</time>
      </trkpt>
      <trkpt lat="47.18782" lon="6.81008">
        <ele>878.1</ele>
        <time>2019-08-06T18:44:45Z</time>
      </trkpt>
      <trkpt lat="47.18723" lon="6.81087">
        <ele>876.7</ele>
        <time>2019-08-06T18:44:53Z</time>
      </trkpt>
      <trkpt lat="47.18698" lon="6.81133">
        <ele>874.9</ele>
        <time>2019-08-06T18:45:01Z</time>
      </trkpt>
      <trkpt lat="47.18683" lon="6.81174">
        <ele>872.5</ele>
        <time>2019-08-06T18:45:09Z</time>
      </trkpt>
      <trkpt lat="47.18679" lon="6.81225">
        <ele>871.8</ele>
        <time>2019-08-06T18:45:18Z</time>
      </trkpt>
      <trkpt lat="47.18679" lon="6.81264">
        <ele>866.4</ele>
        <time>2019-08-06T18:45:28Z</time>
      </trkpt>
      <trkpt lat="47.18684" lon="6.81271">
        <ele>866.8</ele>
        <time>2019-08-06T18:45:37Z</time>
      </trkpt>
      <trkpt lat="47.18709" lon="6.81286">
        <ele>867.6</ele>
        <time>2019-08-06T18:45:47Z</time>
      </trkpt>
      <trkpt lat="47.18755" lon="6.81291">
        <ele>870</ele>
        <time>2019-08-06T18:45:57Z</time>
      </trkpt>
      <trkpt lat="47.18784" lon="6.813">
        <ele>870.7</ele>
        <time>2019-08-06T18:46:10Z</time>
      </trkpt>
      <trkpt lat="47.18826" lon="6.81305">
        <ele>871.2</ele>
        <time>2019-08-06T18:46:36Z</time>
      </trkpt>
      <trkpt lat="47.18826" lon="6.81306">
        <ele>871.4</ele>
        <time>2019-08-06T18:46:55Z</time>
      </trkpt>
      <trkpt lat="47.18849" lon="6.81317">
        <ele>872.8</ele>
        <time>2019-08-06T18:46:59Z</time>
      </trkpt>
      <trkpt lat="47.18857" lon="6.81319">
        <ele>873.2</ele>
        <time>2019-08-06T18:47:13Z</time>
      </trkpt>
      <trkpt lat="47.18884" lon="6.81334">
        <ele>875.2</ele>
        <time>2019-08-06T18:47:22Z</time>
      </trkpt>
      <trkpt lat="47.18909" lon="6.81367">
        <ele>878.2</ele>
        <time>2019-08-06T18:47:49Z</time>
      </trkpt>
      <trkpt lat="47.18918" lon="6.81379">
        <ele>879.6</ele>
        <time>2019-08-06T18:47:54Z</time>
      </trkpt>
      <trkpt lat="47.18923" lon="6.81388">
        <ele>880.5</ele>
        <time>2019-08-06T18:48:05Z</time>
      </trkpt>
      <trkpt lat="47.18932" lon="6.81404">
        <ele>880.7</ele>
        <time>2019-08-06T18:48:38Z</time>
      </trkpt>
      <trkpt lat="47.18961" lon="6.8141">
        <ele>884</ele>
        <time>2019-08-06T18:49:43Z</time>
      </trkpt>
      <trkpt lat="47.18997" lon="6.81422">
        <ele>884.7</ele>
        <time>2019-08-06T18:49:47Z</time>
      </trkpt>
      <trkpt lat="47.19014" lon="6.81413">
        <ele>881.3</ele>
        <time>2019-08-06T18:49:57Z</time>
      </trkpt>
      <trkpt lat="47.19038" lon="6.81406">
        <ele>884</ele>
        <time>2019-08-06T18:50:05Z</time>
      </trkpt>
      <trkpt lat="47.19054" lon="6.81405">
        <ele>883.6</ele>
        <time>2019-08-06T18:50:12Z</time>
      </trkpt>
      <trkpt lat="47.19064" lon="6.8142">
        <ele>881.9</ele>
        <time>2019-08-06T18:50:27Z</time>
      </trkpt>
      <trkpt lat="47.1907" lon="6.8144">
        <ele>881.9</ele>
        <time>2019-08-06T18:50:39Z</time>
      </trkpt>
      <trkpt lat="47.19082" lon="6.81506">
        <ele>881.2</ele>
        <time>2019-08-06T18:51:41Z</time>
      </trkpt>
      <trkpt lat="47.19101" lon="6.81582">
        <ele>881.6</ele>
        <time>2019-08-06T18:51:52Z</time>
      </trkpt>
      <trkpt lat="47.19111" lon="6.81615">
        <ele>882.2</ele>
        <time>2019-08-06T18:52:00Z</time>
      </trkpt>
      <trkpt lat="47.19125" lon="6.81653">
        <ele>882.5</ele>
        <time>2019-08-06T18:52:07Z</time>
      </trkpt>
      <trkpt lat="47.19138" lon="6.81688">
        <ele>881.6</ele>
        <time>2019-08-06T18:52:09Z</time>
      </trkpt>
      <trkpt lat="47.19132" lon="6.81708">
        <ele>881.3</ele>
        <time>2019-08-06T18:52:16Z</time>
      </trkpt>
      <trkpt lat="47.19124" lon="6.81734">
        <ele>880.9</ele>
        <time>2019-08-06T18:52:21Z</time>
      </trkpt>
      <trkpt lat="47.19111" lon="6.81778">
        <ele>878.5</ele>
        <time>2019-08-06T18:52:23Z</time>
      </trkpt>
      <trkpt lat="47.19101" lon="6.81822">
        <ele>877.3</ele>
        <time>2019-08-06T18:52:30Z</time>
      </trkpt>
      <trkpt lat="47.19107" lon="6.8185">
        <ele>876.4</ele>
        <time>2019-08-06T18:52:32Z</time>
      </trkpt>
      <trkpt lat="47.19119" lon="6.81868">
        <ele>876.5</ele>
        <time>2019-08-06T18:52:39Z</time>
      </trkpt>
      <trkpt lat="47.19135" lon="6.81876">
        <ele>876.6</ele>
        <time>2019-08-06T18:52:52Z</time>
      </trkpt>
      <trkpt lat="47.19163" lon="6.81885">
        <ele>877.1</ele>
        <time>2019-08-06T18:52:55Z</time>
      </trkpt>
      <trkpt lat="47.19176" lon="6.81916">
        <ele>877.1</ele>
        <time>2019-08-06T18:53:04Z</time>
      </trkpt>
      <trkpt lat="47.19198" lon="6.8199">
        <ele>877.7</ele>
        <time>2019-08-06T18:53:27Z</time>
      </trkpt>
      <trkpt lat="47.19226" lon="6.82077">
        <ele>878.2</ele>
        <time>2019-08-06T18:53:31Z</time>
      </trkpt>
      <trkpt lat="47.19248" lon="6.82155">
        <ele>877.2</ele>
        <time>2019-08-06T18:54:15Z</time>
      </trkpt>
      <trkpt lat="47.1925" lon="6.82179">
        <ele>876.6</ele>
        <time>2019-08-06T18:54:18Z</time>
      </trkpt>
      <trkpt lat="47.19246" lon="6.822">
        <ele>876.1</ele>
        <time>2019-08-06T18:54:22Z</time>
      </trkpt>
      <trkpt lat="47.19235" lon="6.82237">
        <ele>875.8</ele>
        <time>2019-08-06T18:54:49Z</time>
      </trkpt>
      <trkpt lat="47.19232" lon="6.82256">
        <ele>876.1</ele>
        <time>2019-08-06T18:56:07Z</time>
      </trkpt>
      <trkpt lat="47.19239" lon="6.82275">
        <ele>876.3</ele>
        <time>2019-08-06T18:56:43Z</time>
      </trkpt>
      <trkpt lat="47.19271" lon="6.82258">
        <ele>876</ele>
        <time>2019-08-06T18:56:58Z</time>
      </trkpt>
      <trkpt lat="47.19327" lon="6.82252">
        <ele>876.9</ele>
        <time>2019-08-06T18:57:09Z</time>
      </trkpt>
      <trkpt lat="47.19374" lon="6.8225">
        <ele>878.9</ele>
        <time>2019-08-06T18:57:11Z</time>
      </trkpt>
      <trkpt lat="47.19433" lon="6.82245">
        <ele>885.4</ele>
        <time>2019-08-06T18:57:20Z</time>
      </trkpt>
      <trkpt lat="47.19441" lon="6.82255">
        <ele>884.1</ele>
        <time>2019-08-06T18:57:34Z</time>
      </trkpt>
      <trkpt lat="47.1944" lon="6.82276">
        <ele>884.1</ele>
        <time>2019-08-06T18:57:37Z</time>
      </trkpt>
      <trkpt lat="47.19431" lon="6.82299">
        <ele>883.3</ele>
        <time>2019-08-06T18:57:41Z</time>
      </trkpt>
      <trkpt lat="47.19411" lon="6.8235">
        <ele>878.2</ele>
        <time>2019-08-06T18:57:50Z</time>
      </trkpt>
      <trkpt lat="47.19393" lon="6.82399">
        <ele>877.7</ele>
        <time>2019-08-06T18:58:00Z</time>
      </trkpt>
      <trkpt lat="47.19368" lon="6.82468">
        <ele>877.4</ele>
        <time>2019-08-06T18:58:20Z</time>
      </trkpt>
      <trkpt lat="47.19365" lon="6.82494">
        <ele>877.3</ele>
        <time>2019-08-06T18:58:25Z</time>
      </trkpt>
      <trkpt lat="47.19372" lon="6.82571">
        <ele>878.2</ele>
        <time>2019-08-06T18:58:34Z</time>
      </trkpt>
      <trkpt lat="47.19374" lon="6.8262">
        <ele>878.9</ele>
        <time>2019-08-06T18:58:49Z</time>
      </trkpt>
      <trkpt lat="47.19381" lon="6.82704">
        <ele>879.5</ele>
        <time>2019-08-06T18:59:09Z</time>
      </trkpt>
      <trkpt lat="47.19384" lon="6.82744">
        <ele>879.6</ele>
        <time>2019-08-06T18:59:18Z</time>
      </trkpt>
      <trkpt lat="47.1939" lon="6.82824">
        <ele>882.1</ele>
        <time>2019-08-06T19:00:31Z</time>
      </trkpt>
      <trkpt lat="47.19401" lon="6.82909">
        <ele>886.8</ele>
        <time>2019-08-06T19:00:34Z</time>
      </trkpt>
      <trkpt lat="47.19414" lon="6.82988">
        <ele>891.3</ele>
        <time>2019-08-06T19:00:42Z</time>
      </trkpt>
      <trkpt lat="47.19424" lon="6.83058">
        <ele>894.4</ele>
        <time>2019-08-06T19:01:50Z</time>
      </trkpt>
      <trkpt lat="47.19436" lon="6.83125">
        <ele>894.8</ele>
        <time>2019-08-06T19:01:51Z</time>
      </trkpt>
      <trkpt lat="47.19459" lon="6.83197">
        <ele>895.9</ele>
        <time>2019-08-06T19:01:56Z</time>
      </trkpt>
      <trkpt lat="47.19467" lon="6.83225">
        <ele>896.3</ele>
        <time>2019-08-06T19:02:03Z</time>
      </trkpt>
      <trkpt lat="47.19476" lon="6.83254">
        <ele>897</ele>
        <time>2019-08-06T19:02:11Z</time>
      </trkpt>
      <trkpt lat="47.19481" lon="6.83282">
        <ele>896.8</ele>
        <time>2019-08-06T19:02:16Z</time>
      </trkpt>
      <trkpt lat="47.19474" lon="6.83327">
        <ele>896.5</ele>
        <time>2019-08-06T19:02:17Z</time>
      </trkpt>
      <trkpt lat="47.19502" lon="6.83311">
        <ele>896</ele>
        <time>2019-08-06T19:02:30Z</time>
      </trkpt>
      <trkpt lat="47.19553" lon="6.8328">
        <ele>897.5</ele>
        <time>2019-08-06T19:02:38Z</time>
      </trkpt>
      <trkpt lat="47.19604" lon="6.83257">
        <ele>896.1</ele>
        <time>2019-08-06T19:02:47Z</time>
      </trkpt>
      <trkpt lat="47.19633" lon="6.83249">
        <ele>895.2</ele>
        <time>2019-08-06T19:02:55Z</time>
      </trkpt>
      <trkpt lat="47.19646" lon="6.83247">
        <ele>894.4</ele>
        <time>2019-08-06T19:03:00Z</time>
      </trkpt>
      <trkpt lat="47.19704" lon="6.83236">
        <ele>892.4</ele>
        <time>2019-08-06T19:03:07Z</time>
      </trkpt>
      <trkpt lat="47.19721" lon="6.83232">
        <ele>892.5</ele>
        <time>2019-08-06T19:03:16Z</time>
      </trkpt>
      <trkpt lat="47.19777" lon="6.83218">
        <ele>894.1</ele>
        <time>2019-08-06T19:03:22Z</time>
      </trkpt>
      <trkpt lat="47.19831" lon="6.83206">
        <ele>894.1</ele>
        <time>2019-08-06T19:03:31Z</time>
      </trkpt>
      <trkpt lat="47.19863" lon="6.83202">
        <ele>893.2</ele>
        <time>2019-08-06T19:03:47Z</time>
      </trkpt>
      <trkpt lat="47.19891" lon="6.83194">
        <ele>891.1</ele>
        <time>2019-08-06T19:03:58Z</time>
      </trkpt>
      <trkpt lat="47.19936" lon="6.83177">
        <ele>892.2</ele>
        <time>2019-08-06T19:05:10Z</time>
      </trkpt>
      <trkpt lat="47.19974" lon="6.83157">
        <ele>889.5</ele>
        <time>2019-08-06T19:05:26Z</time>
      </trkpt>
      <trkpt lat="47.20006" lon="6.83133">
        <ele>885.7</ele>
        <time>2019-08-06T19:05:34Z</time>
      </trkpt>
      <trkpt lat="47.2005" lon="6.83096">
        <ele>883</ele>
        <time>2019-08-06T19:05:41Z</time>
      </trkpt>
      <trkpt lat="47.20078" lon="6.83071">
        <ele>879.6</ele>
        <time>2019-08-06T19:05:47Z</time>
      </trkpt>
      <trkpt lat="47.20098" lon="6.83044">
        <ele>868.3</ele>
        <time>2019-08-06T19:05:51Z</time>
      </trkpt>
      <trkpt lat="47.20122" lon="6.83026">
        <ele>860.7</ele>
        <time>2019-08-06T19:06:01Z</time>
      </trkpt>
      <trkpt lat="47.20177" lon="6.83012">
        <ele>849.7</ele>
        <time>2019-08-06T19:06:09Z</time>
      </trkpt>
      <trkpt lat="47.20235" lon="6.82993">
        <ele>840</ele>
        <time>2019-08-06T19:06:24Z</time>
      </trkpt>
      <trkpt lat="47.20296" lon="6.82971">
        <ele>839.7</ele>
        <time>2019-08-06T19:06:36Z</time>
      </trkpt>
      <trkpt lat="47.20353" lon="6.82951">
        <ele>839.4</ele>
        <time>2019-08-06T19:06:44Z</time>
      </trkpt>
      <trkpt lat="47.20395" lon="6.82937">
        <ele>839.7</ele>
        <time>2019-08-06T19:06:49Z</time>
      </trkpt>
      <trkpt lat="47.20419" lon="6.82827">
        <ele>840.3</ele>
        <time>2019-08-06T19:06:56Z</time>
      </trkpt>
      <trkpt lat="47.20434" lon="6.82795">
        <ele>840.7</ele>
        <time>2019-08-06T19:07:03Z</time>
      </trkpt>
      <trkpt lat="47.20451" lon="6.8277">
        <ele>840.7</ele>
        <time>2019-08-06T19:07:12Z</time>
      </trkpt>
      <trkpt lat="47.20495" lon="6.8274">
        <ele>839.6</ele>
        <time>2019-08-06T19:07:25Z</time>
      </trkpt>
      <trkpt lat="47.20538" lon="6.82713">
        <ele>839.5</ele>
        <time>2019-08-06T19:07:47Z</time>
      </trkpt>
      <trkpt lat="47.2059" lon="6.82681">
        <ele>839.9</ele>
        <time>2019-08-06T19:07:52Z</time>
      </trkpt>
      <trkpt lat="47.2064" lon="6.82649">
        <ele>842</ele>
        <time>2019-08-06T19:08:04Z</time>
      </trkpt>
      <trkpt lat="47.20664" lon="6.82633">
        <ele>842.8</ele>
        <time>2019-08-06T19:08:15Z</time>
      </trkpt>
      <trkpt lat="47.20699" lon="6.82613">
        <ele>843.7</ele>
        <time>2019-08-06T19:08:26Z</time>
      </trkpt>
      <trkpt lat="47.20751" lon="6.82577">
        <ele>844.6</ele>
        <time>2019-08-06T19:08:37Z</time>
      </trkpt>
      <trkpt lat="47.20801" lon="6.82544">
        <ele>845.7</ele>
        <time>2019-08-06T19:08:42Z</time>
      </trkpt>
      <trkpt lat="47.20815" lon="6.82535">
        <ele>845.8</ele>
        <time>2019-08-06T19:08:53Z</time>
      </trkpt>
      <trkpt lat="47.20853" lon="6.8251">
        <ele>847.3</ele>
        <time>2019-08-06T19:09:50Z</time>
      </trkpt>
      <trkpt lat="47.20906" lon="6.82476">
        <ele>848.9</ele>
        <time>2019-08-06T19:09:58Z</time>
      </trkpt>
      <trkpt lat="47.20936" lon="6.8245">
        <ele>849.9</ele>
        <time>2019-08-06T19:10:00Z</time>
      </trkpt>
      <trkpt lat="47.21013" lon="6.82416">
        <ele>851.7</ele>
        <time>2019-08-06T19:10:10Z</time>
      </trkpt>
      <trkpt lat="47.21064" lon="6.82396">
        <ele>852.6</ele>
        <time>2019-08-06T19:10:18Z</time>
      </trkpt>
      <trkpt lat="47.21103" lon="6.82379">
        <ele>854.1</ele>
        <time>2019-08-06T19:10:19Z</time>
      </trkpt>
      <trkpt lat="47.21151" lon="6.82359">
        <ele>856.4</ele>
        <time>2019-08-06T19:10:25Z</time>
      </trkpt>
      <trkpt lat="47.21204" lon="6.82338">
        <ele>860.6</ele>
        <time>2019-08-06T19:10:31Z</time>
      </trkpt>
      <trkpt lat="47.21229" lon="6.82324">
        <ele>862.1</ele>
        <time>2019-08-06T19:10:49Z</time>
      </trkpt>
      <trkpt lat="47.21243" lon="6.82323">
        <ele>863.3</ele>
        <time>2019-08-06T19:12:52Z</time>
      </trkpt>
      <trkpt lat="47.21288" lon="6.82325">
        <ele>864.7</ele>
        <time>2019-08-06T19:12:57Z</time>
      </trkpt>
      <trkpt lat="47.21303" lon="6.82324">
        <ele>865</ele>
        <time>2019-08-06T19:13:05Z</time>
      </trkpt>
      <trkpt lat="47.21317" lon="6.82309">
        <ele>865.4</ele>
        <time>2019-08-06T19:13:09Z</time>
      </trkpt>
      <trkpt lat="47.21347" lon="6.82272">
        <ele>867</ele>
        <time>2019-08-06T19:13:18Z</time>
      </trkpt>
      <trkpt lat="47.21384" lon="6.82229">
        <ele>869.3</ele>
        <time>2019-08-06T19:13:22Z</time>
      </trkpt>
      <trkpt lat="47.2139" lon="6.82222">
        <ele>869.6</ele>
        <time>2019-08-06T19:13:28Z</time>
      </trkpt>
      <trkpt lat="47.21431" lon="6.82171">
        <ele>870.1</ele>
        <time>2019-08-06T19:13:37Z</time>
      </trkpt>
      <trkpt lat="47.2145" lon="6.82141">
        <ele>869.4</ele>
        <time>2019-08-06T19:13:47Z</time>
      </trkpt>
      <trkpt lat="47.21466" lon="6.82119">
        <ele>868.5</ele>
        <time>2019-08-06T19:13:48Z</time>
      </trkpt>
      <trkpt lat="47.21481" lon="6.8211">
        <ele>870</ele>
        <time>2019-08-06T19:14:11Z</time>
      </trkpt>
      <trkpt lat="47.21475" lon="6.82091">
        <ele>869.5</ele>
        <time>2019-08-06T19:14:19Z</time>
      </trkpt>
      <trkpt lat="47.21464" lon="6.82051">
        <ele>868.3</ele>
        <time>2019-08-06T19:14:30Z</time>
      </trkpt>
      <trkpt lat="47.21455" lon="6.82024">
        <ele>868.1</ele>
        <time>2019-08-06T19:14:32Z</time>
      </trkpt>
      <trkpt lat="47.21443" lon="6.81989">
        <ele>867.1</ele>
        <time>2019-08-06T19:14:43Z</time>
      </trkpt>
      <trkpt lat="47.21435" lon="6.81961">
        <ele>866.7</ele>
        <time>2019-08-06T19:14:53Z</time>
      </trkpt>
      <trkpt lat="47.21422" lon="6.81921">
        <ele>866.8</ele>
        <time>2019-08-06T19:14:59Z</time>
      </trkpt>
      <trkpt lat="47.21401" lon="6.81847">
        <ele>867.6</ele>
        <time>2019-08-06T19:15:03Z</time>
      </trkpt>
      <trkpt lat="47.21387" lon="6.81801">
        <ele>867.1</ele>
        <time>2019-08-06T19:15:16Z</time>
      </trkpt>
      <trkpt lat="47.21377" lon="6.81769">
        <ele>867.4</ele>
        <time>2019-08-06T19:15:22Z</time>
      </trkpt>
      <trkpt lat="47.21367" lon="6.81738">
        <ele>868</ele>
        <time>2019-08-06T19:15:29Z</time>
      </trkpt>
      <trkpt lat="47.21353" lon="6.81711">
        <ele>868.9</ele>
        <time>2019-08-06T19:15:49Z</time>
      </trkpt>
      <trkpt lat="47.21327" lon="6.81681">
        <ele>871</ele>
        <time>2019-08-06T19:15:54Z</time>
      </trkpt>
      <trkpt lat="47.2127" lon="6.81645">
        <ele>878.1</ele>
        <time>2019-08-06T19:15:59Z</time>
      </trkpt>
      <trkpt lat="47.21262" lon="6.81601">
        <ele>880.1</ele>
        <time>2019-08-06T19:16:07Z</time>
      </trkpt>
      <trkpt lat="47.21225" lon="6.81523">
        <ele>883.1</ele>
        <time>2019-08-06T19:16:16Z</time>
      </trkpt>
      <trkpt lat="47.21211" lon="6.81477">
        <ele>882.6</ele>
        <time>2019-08-06T19:16:22Z</time>
      </trkpt>
      <trkpt lat="47.21189" lon="6.8142">
        <ele>884.3</ele>
        <time>2019-08-06T19:16:28Z</time>
      </trkpt>
      <trkpt lat="47.21162" lon="6.81337">
        <ele>884.9</ele>
        <time>2019-08-06T19:16:32Z</time>
      </trkpt>
      <trkpt lat="47.21146" lon="6.81291">
        <ele>882.9</ele>
        <time>2019-08-06T19:16:38Z</time>
      </trkpt>
      <trkpt lat="47.21116" lon="6.81253">
        <ele>883.3</ele>
        <time>2019-08-06T19:16:50Z</time>
      </trkpt>
      <trkpt lat="47.2105" lon="6.8118">
        <ele>884.4</ele>
        <time>2019-08-06T19:17:00Z</time>
      </trkpt>
      <trkpt lat="47.21013" lon="6.81134">
        <ele>882.5</ele>
        <time>2019-08-06T19:17:09Z</time>
      </trkpt>
      <trkpt lat="47.20995" lon="6.8111">
        <ele>884.8</ele>
      </trkpt>
      <trkpt lat="47.20967" lon="6.811">
        <ele>886.6</ele>
      </trkpt>
      <trkpt lat="47.20931" lon="6.81069">
        <ele>886.1</ele>
      </trkpt>
      <trkpt lat="47.20893" lon="6.8103">
        <ele>887.7</ele>
      </trkpt>
      <trkpt lat="47.20851" lon="6.80972">
        <ele>889.2</ele>
      </trkpt>
      <trkpt lat="47.20818" lon="6.80939">
        <ele>893.2</ele>
      </trkpt>
      <trkpt lat="47.20784" lon="6.809">
        <ele>895.8</ele>
      </trkpt>
      <trkpt lat="47.20774" lon="6.80886">
        <ele>895.9</ele>
      </trkpt>
      <trkpt lat="47.20748" lon="6.80862">
        <ele>895.8</ele>
      </trkpt>
      <trkpt lat="47.20729" lon="6.80834">
        <ele>895.6</ele>
      </trkpt>
      <trkpt lat="47.2072" lon="6.80812">
        <ele>894.7</ele>
      </trkpt>
      <trkpt lat="47.20717" lon="6.80789">
        <ele>894.3</ele>
      </trkpt>
      <trkpt lat="47.20716" lon="6.80756">
        <ele>894.1</ele>
      </trkpt>
      <trkpt lat="47.20718" lon="6.80744">
        <ele>891.5</ele>
      </trkpt>
      <trkpt lat="47.20722" lon="6.80735">
        <ele>891.4</ele>
      </trkpt>
      <trkpt lat="47.20722" lon="6.80734">
        <ele>891.4</ele>
      </trkpt>
      <trkpt lat="47.20722" lon="6.80733">
        <ele>891.4</ele>
      </trkpt>
      <trkpt lat="47.20718" lon="6.80709">
        <ele>891.3</ele>
      </trkpt>
      <trkpt lat="47.20701" lon="6.80632">
        <ele>887</ele>
      </trkpt>
      <trkpt lat="47.20695" lon="6.80607">
        <ele>885.3</ele>
      </trkpt>
      <trkpt lat="47.20689" lon="6.80583">
        <ele>884.7</ele>
      </trkpt>
      <trkpt lat="47.20683" lon="6.80561">
        <ele>884.8</ele>
      </trkpt>
      <trkpt lat="47.20678" lon="6.80538">
        <ele>885.2</ele>
      </trkpt>
      <trkpt lat="47.20675" lon="6.80521">
        <ele>885.2</ele>
      </trkpt>
      <trkpt lat="47.20678" lon="6.80471">
        <ele>885</ele>
      </trkpt>
      <trkpt lat="47.20681" lon="6.80449">
        <ele>884.8</ele>
      </trkpt>
      <trkpt lat="47.20688" lon="6.80433">
        <ele>884.6</ele>
      </trkpt>
      <trkpt lat="47.20698" lon="6.80421">
        <ele>884.5</ele>
      </trkpt>
      <trkpt lat="47.20711" lon="6.80403">
        <ele>883.6</ele>
      </trkpt>
      <trkpt lat="47.2072" lon="6.80392">
        <ele>882.9</ele>
      </trkpt>
      <trkpt lat="47.20727" lon="6.80383">
        <ele>882.2</ele>
      </trkpt>
      <trkpt lat="47.20735" lon="6.80366">
        <ele>882.8</ele>
      </trkpt>
      <trkpt lat="47.20746" lon="6.80318">
        <ele>882.7</ele>
      </trkpt>
      <trkpt lat="47.2075" lon="6.80302">
        <ele>882.6</ele>
      </trkpt>
      <trkpt lat="47.20755" lon="6.80289">
        <ele>881.7</ele>
      </trkpt>
      <trkpt lat="47.20761" lon="6.80273">
        <ele>881</ele>
      </trkpt>
      <trkpt lat="47.20769" lon="6.80253">
        <ele>880.5</ele>
      </trkpt>
      <trkpt lat="47.20776" lon="6.80225">
        <ele>884.1</ele>
      </trkpt>
      <trkpt lat="47.20787" lon="6.80181">
        <ele>884.9</ele>
      </trkpt>
      <trkpt lat="47.20791" lon="6.8013">
        <ele>882.5</ele>
      </trkpt>
      <trkpt lat="47.20791" lon="6.8007">
        <ele>882.6</ele>
      </trkpt>
      <trkpt lat="47.20796" lon="6.80034">
        <ele>882.2</ele>
      </trkpt>
      <trkpt lat="47.20802" lon="6.79988">
        <ele>881.2</ele>
      </trkpt>
      <trkpt lat="47.20807" lon="6.79941">
        <ele>880.9</ele>
      </trkpt>
      <trkpt lat="47.20808" lon="6.79927">
        <ele>880.6</ele>
      </trkpt>
      <trkpt lat="47.20807" lon="6.79909">
        <ele>882.4</ele>
      </trkpt>
      <trkpt lat="47.20817" lon="6.79886">
        <ele>881</ele>
      </trkpt>
      <trkpt lat="47.2082" lon="6.79855">
        <ele>879.7</ele>
      </trkpt>
      <trkpt lat="47.20828" lon="6.79806">
        <ele>881.2</ele>
      </trkpt>
      <trkpt lat="47.20836" lon="6.79736">
        <ele>880.5</ele>
      </trkpt>
      <trkpt lat="47.20837" lon="6.79674">
        <ele>885.4</ele>
      </trkpt>
      <trkpt lat="47.20841" lon="6.79628">
        <ele>890.8</ele>
      </trkpt>
      <trkpt lat="47.20838" lon="6.79599">
        <ele>892.3</ele>
      </trkpt>
      <trkpt lat="47.20823" lon="6.79562">
        <ele>895.8</ele>
      </trkpt>
      <trkpt lat="47.20804" lon="6.7954">
        <ele>897.4</ele>
      </trkpt>
      <trkpt lat="47.2078" lon="6.79521">
        <ele>898.7</ele>
      </trkpt>
      <trkpt lat="47.20743" lon="6.79498">
        <ele>893.3</ele>
      </trkpt>
      <trkpt lat="47.20728" lon="6.79496">
        <ele>895</ele>
      </trkpt>
      <trkpt lat="47.20694" lon="6.79498">
        <ele>898.2</ele>
      </trkpt>
      <trkpt lat="47.20675" lon="6.79502">
        <ele>899.7</ele>
      </trkpt>
      <trkpt lat="47.2063" lon="6.79481">
        <ele>906.4</ele>
      </trkpt>
      <trkpt lat="47.2061" lon="6.79472">
        <ele>902.7</ele>
      </trkpt>
      <trkpt lat="47.20579" lon="6.79475">
        <ele>902.8</ele>
      </trkpt>
      <trkpt lat="47.20541" lon="6.79478">
        <ele>909.5</ele>
      </trkpt>
      <trkpt lat="47.20491" lon="6.79476">
        <ele>902.9</ele>
      </trkpt>
      <trkpt lat="47.20436" lon="6.79476">
        <ele>902.8</ele>
      </trkpt>
      <trkpt lat="47.20379" lon="6.79474">
        <ele>902.7</ele>
      </trkpt>
      <trkpt lat="47.20323" lon="6.79473">
        <ele>902.2</ele>
      </trkpt>
      <trkpt lat="47.20266" lon="6.79472">
        <ele>900.9</ele>
      </trkpt>
      <trkpt lat="47.20216" lon="6.79467">
        <ele>898.9</ele>
      </trkpt>
      <trkpt lat="47.20162" lon="6.7946">
        <ele>897.7</ele>
      </trkpt>
      <trkpt lat="47.20137" lon="6.79457">
        <ele>897</ele>
      </trkpt>
      <trkpt lat="47.20089" lon="6.79449">
        <ele>896.1</ele>
      </trkpt>
      <trkpt lat="47.20036" lon="6.79435">
        <ele>895</ele>
      </trkpt>
      <trkpt lat="47.20011" lon="6.79428">
        <ele>894.3</ele>
      </trkpt>
      <trkpt lat="47.19971" lon="6.79416">
        <ele>892.2</ele>
      </trkpt>
      <trkpt lat="47.19913" lon="6.79401">
        <ele>890.1</ele>
      </trkpt>
      <trkpt lat="47.19861" lon="6.79389">
        <ele>890.3</ele>
      </trkpt>
      <trkpt lat="47.19847" lon="6.79375">
        <ele>889</ele>
      </trkpt>
      <trkpt lat="47.19821" lon="6.7935">
        <ele>888</ele>
      </trkpt>
      <trkpt lat="47.19778" lon="6.79294">
        <ele>887.6</ele>
      </trkpt>
      <trkpt lat="47.19736" lon="6.79239">
        <ele>887.6</ele>
      </trkpt>
      <trkpt lat="47.19712" lon="6.7921">
        <ele>886.9</ele>
      </trkpt>
      <trkpt lat="47.19708" lon="6.79199">
        <ele>886.5</ele>
      </trkpt>
      <trkpt lat="47.19694" lon="6.79178">
        <ele>885.7</ele>
      </trkpt>
      <trkpt lat="47.19684" lon="6.79167">
        <ele>885.3</ele>
      </trkpt>
      <trkpt lat="47.19672" lon="6.79153">
        <ele>884.9</ele>
      </trkpt>
      <trkpt lat="47.19655" lon="6.79134">
        <ele>884.7</ele>
      </trkpt>
      <trkpt lat="47.19614" lon="6.79081">
        <ele>885.2</ele>
      </trkpt>
      <trkpt lat="47.19577" lon="6.79023">
        <ele>886.5</ele>
      </trkpt>
      <trkpt lat="47.19536" lon="6.78965">
        <ele>886.6</ele>
      </trkpt>
      <trkpt lat="47.19489" lon="6.78919">
        <ele>897.1</ele>
      </trkpt>
      <trkpt lat="47.19467" lon="6.7889">
        <ele>901.8</ele>
      </trkpt>
      <trkpt lat="47.1946" lon="6.78867">
        <ele>890.3</ele>
      </trkpt>
      <trkpt lat="47.1944" lon="6.78817">
        <ele>903.6</ele>
      </trkpt>
      <trkpt lat="47.19432" lon="6.78781">
        <ele>902.6</ele>
      </trkpt>
      <trkpt lat="47.19413" lon="6.78715">
        <ele>904.2</ele>
      </trkpt>
      <trkpt lat="47.19411" lon="6.7865">
        <ele>900.1</ele>
      </trkpt>
      <trkpt lat="47.19423" lon="6.78608">
        <ele>897</ele>
      </trkpt>
      <trkpt lat="47.19459" lon="6.78579">
        <ele>897.6</ele>
      </trkpt>
      <trkpt lat="47.19478" lon="6.78559">
        <ele>898.8</ele>
      </trkpt>
      <trkpt lat="47.19524" lon="6.78509">
        <ele>901.1</ele>
      </trkpt>
      <trkpt lat="47.1957" lon="6.78462">
        <ele>905.1</ele>
      </trkpt>
      <trkpt lat="47.19591" lon="6.7844">
        <ele>906.3</ele>
      </trkpt>
      <trkpt lat="47.19624" lon="6.78406">
        <ele>908.2</ele>
      </trkpt>
      <trkpt lat="47.19671" lon="6.78359">
        <ele>908.9</ele>
      </trkpt>
      <trkpt lat="47.19719" lon="6.7831">
        <ele>909.5</ele>
      </trkpt>
      <trkpt lat="47.19753" lon="6.78276">
        <ele>909.9</ele>
      </trkpt>
      <trkpt lat="47.19785" lon="6.78243">
        <ele>908.6</ele>
      </trkpt>
      <trkpt lat="47.19813" lon="6.78214">
        <ele>906.5</ele>
      </trkpt>
      <trkpt lat="47.19861" lon="6.78165">
        <ele>904.6</ele>
      </trkpt>
      <trkpt lat="47.19908" lon="6.78118">
        <ele>906.6</ele>
      </trkpt>
      <trkpt lat="47.19949" lon="6.78073">
        <ele>909</ele>
      </trkpt>
      <trkpt lat="47.19999" lon="6.78021">
        <ele>909.1</ele>
      </trkpt>
      <trkpt lat="47.20016" lon="6.78003">
        <ele>908.8</ele>
      </trkpt>
      <trkpt lat="47.20043" lon="6.77976">
        <ele>907.4</ele>
      </trkpt>
      <trkpt lat="47.2009" lon="6.77929">
        <ele>904.9</ele>
      </trkpt>
      <trkpt lat="47.20135" lon="6.77882">
        <ele>902</ele>
      </trkpt>
      <trkpt lat="47.20168" lon="6.77847">
        <ele>899.3</ele>
      </trkpt>
      <trkpt lat="47.20217" lon="6.77796">
        <ele>896.7</ele>
      </trkpt>
      <trkpt lat="47.20265" lon="6.77745">
        <ele>896.3</ele>
      </trkpt>
      <trkpt lat="47.20313" lon="6.77696">
        <ele>896.7</ele>
      </trkpt>
      <trkpt lat="47.20333" lon="6.77678">
        <ele>896.9</ele>
      </trkpt>
      <trkpt lat="47.20347" lon="6.77669">
        <ele>896.6</ele>
      </trkpt>
      <trkpt lat="47.20374" lon="6.77661">
        <ele>898</ele>
      </trkpt>
      <trkpt lat="47.204" lon="6.77658">
        <ele>893.9</ele>
      </trkpt>
      <trkpt lat="47.20413" lon="6.77657">
        <ele>897.3</ele>
      </trkpt>
      <trkpt lat="47.20409" lon="6.77638">
        <ele>897.7</ele>
      </trkpt>
      <trkpt lat="47.20399" lon="6.77626">
        <ele>897.9</ele>
      </trkpt>
      <trkpt lat="47.20399" lon="6.77597">
        <ele>895.2</ele>
      </trkpt>
      <trkpt lat="47.20397" lon="6.77561">
        <ele>893.9</ele>
      </trkpt>
      <trkpt lat="47.20392" lon="6.77534">
        <ele>896.6</ele>
      </trkpt>
      <trkpt lat="47.20381" lon="6.77486">
        <ele>894.7</ele>
      </trkpt>
      <trkpt lat="47.20376" lon="6.77457">
        <ele>891.6</ele>
      </trkpt>
      <trkpt lat="47.20355" lon="6.77434">
        <ele>894.6</ele>
      </trkpt>
      <trkpt lat="47.20344" lon="6.77409">
        <ele>894</ele>
      </trkpt>
      <trkpt lat="47.2034" lon="6.77384">
        <ele>893.2</ele>
      </trkpt>
      <trkpt lat="47.2034" lon="6.77357">
        <ele>892.8</ele>
      </trkpt>
      <trkpt lat="47.2034" lon="6.77323">
        <ele>892</ele>
      </trkpt>
      <trkpt lat="47.20335" lon="6.77297">
        <ele>891.2</ele>
      </trkpt>
      <trkpt lat="47.20285" lon="6.77224">
        <ele>890.1</ele>
      </trkpt>
      <trkpt lat="47.20259" lon="6.77176">
        <ele>888.8</ele>
      </trkpt>
      <trkpt lat="47.20235" lon="6.77122">
        <ele>888</ele>
      </trkpt>
      <trkpt lat="47.20222" lon="6.77077">
        <ele>892.7</ele>
      </trkpt>
      <trkpt lat="47.202" lon="6.77038">
        <ele>892.8</ele>
      </trkpt>
      <trkpt lat="47.2018" lon="6.77019">
        <ele>889.4</ele>
      </trkpt>
      <trkpt lat="47.20135" lon="6.76975">
        <ele>892.8</ele>
      </trkpt>
      <trkpt lat="47.20088" lon="6.76927">
        <ele>893.4</ele>
      </trkpt>
      <trkpt lat="47.20062" lon="6.76903">
        <ele>890</ele>
      </trkpt>
      <trkpt lat="47.20047" lon="6.76871">
        <ele>895.1</ele>
      </trkpt>
      <trkpt lat="47.20037" lon="6.76846">
        <ele>896.2</ele>
      </trkpt>
      <trkpt lat="47.20024" lon="6.7682">
        <ele>892</ele>
      </trkpt>
      <trkpt lat="47.20021" lon="6.76791">
        <ele>898.2</ele>
      </trkpt>
      <trkpt lat="47.2001" lon="6.76754">
        <ele>899.4</ele>
      </trkpt>
      <trkpt lat="47.20005" lon="6.76744">
        <ele>899.7</ele>
      </trkpt>
      <trkpt lat="47.19957" lon="6.76706">
        <ele>901.7</ele>
      </trkpt>
      <trkpt lat="47.19916" lon="6.76686">
        <ele>902.1</ele>
      </trkpt>
      <trkpt lat="47.19892" lon="6.76686">
        <ele>902.6</ele>
      </trkpt>
      <trkpt lat="47.19858" lon="6.7668">
        <ele>903.4</ele>
      </trkpt>
      <trkpt lat="47.19833" lon="6.76683">
        <ele>904.2</ele>
      </trkpt>
      <trkpt lat="47.19804" lon="6.76662">
        <ele>906.2</ele>
      </trkpt>
      <trkpt lat="47.19779" lon="6.76603">
        <ele>906.5</ele>
      </trkpt>
      <trkpt lat="47.19748" lon="6.7656">
        <ele>905</ele>
      </trkpt>
      <trkpt lat="47.19732" lon="6.76521">
        <ele>905</ele>
      </trkpt>
      <trkpt lat="47.19731" lon="6.76494">
        <ele>909.1</ele>
      </trkpt>
      <trkpt lat="47.19731" lon="6.76481">
        <ele>906.3</ele>
      </trkpt>
      <trkpt lat="47.19759" lon="6.76469">
        <ele>909.7</ele>
      </trkpt>
      <trkpt lat="47.19771" lon="6.76456">
        <ele>909.3</ele>
      </trkpt>
      <trkpt lat="47.1979" lon="6.76428">
        <ele>910.1</ele>
      </trkpt>
      <trkpt lat="47.19817" lon="6.76396">
        <ele>914.1</ele>
      </trkpt>
      <trkpt lat="47.19838" lon="6.76364">
        <ele>911.7</ele>
      </trkpt>
      <trkpt lat="47.19874" lon="6.76297">
        <ele>908.7</ele>
      </trkpt>
      <trkpt lat="47.19901" lon="6.76273">
        <ele>905</ele>
      </trkpt>
      <trkpt lat="47.19904" lon="6.76248">
        <ele>902.1</ele>
      </trkpt>
      <trkpt lat="47.19892" lon="6.76199">
        <ele>904.8</ele>
      </trkpt>
      <trkpt lat="47.19883" lon="6.76176">
        <ele>898</ele>
      </trkpt>
      <trkpt lat="47.19865" lon="6.76114">
        <ele>903.1</ele>
      </trkpt>
      <trkpt lat="47.19843" lon="6.76051">
        <ele>897.8</ele>
      </trkpt>
      <trkpt lat="47.19828" lon="6.76007">
        <ele>892.1</ele>
      </trkpt>
      <trkpt lat="47.19812" lon="6.75972">
        <ele>897.2</ele>
      </trkpt>
      <trkpt lat="47.19811" lon="6.7595">
        <ele>896.5</ele>
      </trkpt>
      <trkpt lat="47.19806" lon="6.75925">
        <ele>889.9</ele>
      </trkpt>
      <trkpt lat="47.19777" lon="6.75848">
        <ele>887.3</ele>
      </trkpt>
      <trkpt lat="47.19765" lon="6.75834">
        <ele>886.4</ele>
      </trkpt>
      <trkpt lat="47.19721" lon="6.75799">
        <ele>893.2</ele>
      </trkpt>
      <trkpt lat="47.19699" lon="6.75753">
        <ele>893.2</ele>
      </trkpt>
      <trkpt lat="47.1968" lon="6.75704">
        <ele>890</ele>
      </trkpt>
      <trkpt lat="47.19665" lon="6.75642">
        <ele>884.2</ele>
      </trkpt>
      <trkpt lat="47.19639" lon="6.75563">
        <ele>882.1</ele>
      </trkpt>
      <trkpt lat="47.19604" lon="6.75491">
        <ele>879.9</ele>
      </trkpt>
      <trkpt lat="47.19575" lon="6.75414">
        <ele>876.8</ele>
      </trkpt>
      <trkpt lat="47.19551" lon="6.75339">
        <ele>874.7</ele>
      </trkpt>
      <trkpt lat="47.19526" lon="6.75261">
        <ele>874</ele>
      </trkpt>
      <trkpt lat="47.19502" lon="6.7519">
        <ele>873</ele>
      </trkpt>
      <trkpt lat="47.1948" lon="6.75127">
        <ele>871.7</ele>
      </trkpt>
      <trkpt lat="47.19456" lon="6.75055">
        <ele>869.3</ele>
      </trkpt>
      <trkpt lat="47.1943" lon="6.7498">
        <ele>867.9</ele>
      </trkpt>
      <trkpt lat="47.19397" lon="6.74897">
        <ele>870.5</ele>
      </trkpt>
      <trkpt lat="47.19385" lon="6.74921">
        <ele>871.8</ele>
      </trkpt>
      <trkpt lat="47.19371" lon="6.74903">
        <ele>870.1</ele>
      </trkpt>
      <trkpt lat="47.1934" lon="6.74877">
        <ele>871.2</ele>
      </trkpt>
      <trkpt lat="47.19309" lon="6.74943">
        <ele>873.8</ele>
      </trkpt>
      <trkpt lat="47.19292" lon="6.74957">
        <ele>875.4</ele>
      </trkpt>
      <trkpt lat="47.19276" lon="6.74982">
        <ele>877.3</ele>
      </trkpt>
      <trkpt lat="47.19261" lon="6.75002">
        <ele>879</ele>
      </trkpt>
      <trkpt lat="47.19212" lon="6.75032">
        <ele>883.5</ele>
      </trkpt>
      <trkpt lat="47.19203" lon="6.75035">
        <ele>884.3</ele>
      </trkpt>
      <trkpt lat="47.1918" lon="6.75042">
        <ele>886.5</ele>
      </trkpt>
      <trkpt lat="47.19155" lon="6.74986">
        <ele>900.4</ele>
      </trkpt>
      <trkpt lat="47.19136" lon="6.74949">
        <ele>902.2</ele>
      </trkpt>
      <trkpt lat="47.19114" lon="6.74904">
        <ele>903.9</ele>
      </trkpt>
      <trkpt lat="47.19091" lon="6.74848">
        <ele>904.2</ele>
      </trkpt>
      <trkpt lat="47.19079" lon="6.74819">
        <ele>902.7</ele>
      </trkpt>
      <trkpt lat="47.19062" lon="6.74765">
        <ele>896.1</ele>
      </trkpt>
      <trkpt lat="47.19045" lon="6.7469">
        <ele>896.4</ele>
      </trkpt>
      <trkpt lat="47.19036" lon="6.74651">
        <ele>896</ele>
      </trkpt>
      <trkpt lat="47.19018" lon="6.74574">
        <ele>895.2</ele>
      </trkpt>
      <trkpt lat="47.19013" lon="6.74505">
        <ele>894.7</ele>
      </trkpt>
      <trkpt lat="47.19008" lon="6.74455">
        <ele>896.7</ele>
      </trkpt>
      <trkpt lat="47.18992" lon="6.74474">
        <ele>894.8</ele>
      </trkpt>
      <trkpt lat="47.18968" lon="6.74508">
        <ele>894</ele>
      </trkpt>
      <trkpt lat="47.1894" lon="6.74564">
        <ele>895.7</ele>
      </trkpt>
      <trkpt lat="47.18906" lon="6.74651">
        <ele>890</ele>
      </trkpt>
      <trkpt lat="47.18893" lon="6.74698">
        <ele>888.3</ele>
      </trkpt>
      <trkpt lat="47.18862" lon="6.74789">
        <ele>888.2</ele>
      </trkpt>
      <trkpt lat="47.18838" lon="6.7485">
        <ele>889.3</ele>
      </trkpt>
      <trkpt lat="47.18799" lon="6.74955">
        <ele>886.8</ele>
      </trkpt>
      <trkpt lat="47.18793" lon="6.74967">
        <ele>888</ele>
      </trkpt>
      <trkpt lat="47.18744" lon="6.75008">
        <ele>889</ele>
      </trkpt>
      <trkpt lat="47.18698" lon="6.75057">
        <ele>885.3</ele>
      </trkpt>
      <trkpt lat="47.1866" lon="6.75093">
        <ele>882.3</ele>
      </trkpt>
      <trkpt lat="47.18625" lon="6.75111">
        <ele>881.3</ele>
      </trkpt>
      <trkpt lat="47.18615" lon="6.75115">
        <ele>880.9</ele>
      </trkpt>
      <trkpt lat="47.18578" lon="6.75124">
        <ele>879.5</ele>
      </trkpt>
      <trkpt lat="47.18553" lon="6.75119">
        <ele>880.2</ele>
      </trkpt>
      <trkpt lat="47.18545" lon="6.75116">
        <ele>880.8</ele>
      </trkpt>
      <trkpt lat="47.18516" lon="6.75109">
        <ele>881.7</ele>
      </trkpt>
      <trkpt lat="47.18499" lon="6.75104">
        <ele>881.4</ele>
      </trkpt>
      <trkpt lat="47.18476" lon="6.75097">
        <ele>882.4</ele>
      </trkpt>
      <trkpt lat="47.18421" lon="6.75087">
        <ele>885.1</ele>
      </trkpt>
      <trkpt lat="47.18407" lon="6.75088">
        <ele>885.6</ele>
      </trkpt>
      <trkpt lat="47.18371" lon="6.75097">
        <ele>906.4</ele>
      </trkpt>
      <trkpt lat="47.18345" lon="6.75102">
        <ele>907.8</ele>
      </trkpt>
      <trkpt lat="47.18322" lon="6.75109">
        <ele>888.8</ele>
      </trkpt>
      <trkpt lat="47.18311" lon="6.75115">
        <ele>889.4</ele>
      </trkpt>
      <trkpt lat="47.18288" lon="6.75121">
        <ele>914.6</ele>
      </trkpt>
      <trkpt lat="47.18283" lon="6.75127">
        <ele>915</ele>
      </trkpt>
      <trkpt lat="47.18263" lon="6.7518">
        <ele>916.7</ele>
      </trkpt>
      <trkpt lat="47.18249" lon="6.75217">
        <ele>896.9</ele>
      </trkpt>
      <trkpt lat="47.18244" lon="6.7523">
        <ele>897.6</ele>
      </trkpt>
      <trkpt lat="47.18241" lon="6.75239">
        <ele>898.1</ele>
      </trkpt>
      <trkpt lat="47.18229" lon="6.75261">
        <ele>899.6</ele>
      </trkpt>
      <trkpt lat="47.18203" lon="6.75339">
        <ele>915</ele>
      </trkpt>
      <trkpt lat="47.18179" lon="6.75413">
        <ele>918.1</ele>
      </trkpt>
      <trkpt lat="47.18168" lon="6.75362">
        <ele>916.8</ele>
      </trkpt>
      <trkpt lat="47.1816" lon="6.75319">
        <ele>919.3</ele>
      </trkpt>
      <trkpt lat="47.1815" lon="6.75273">
        <ele>919.4</ele>
      </trkpt>
      <trkpt lat="47.18137" lon="6.75185">
        <ele>907.7</ele>
      </trkpt>
      <trkpt lat="47.18135" lon="6.75138">
        <ele>917.3</ele>
      </trkpt>
      <trkpt lat="47.18135" lon="6.751">
        <ele>916.6</ele>
      </trkpt>
      <trkpt lat="47.18135" lon="6.75069">
        <ele>913.7</ele>
      </trkpt>
      <trkpt lat="47.18133" lon="6.75018">
        <ele>912.3</ele>
      </trkpt>
      <trkpt lat="47.18124" lon="6.74984">
        <ele>908.7</ele>
      </trkpt>
      <trkpt lat="47.18109" lon="6.74952">
        <ele>906.9</ele>
      </trkpt>
      <trkpt lat="47.18096" lon="6.74945">
        <ele>905.5</ele>
      </trkpt>
      <trkpt lat="47.18083" lon="6.74935">
        <ele>897.6</ele>
      </trkpt>
      <trkpt lat="47.18074" lon="6.74928">
        <ele>892.6</ele>
      </trkpt>
      <trkpt lat="47.18066" lon="6.74913">
        <ele>894.6</ele>
      </trkpt>
      <trkpt lat="47.1808" lon="6.74873">
        <ele>890.3</ele>
      </trkpt>
      <trkpt lat="47.18083" lon="6.7481">
        <ele>888.2</ele>
      </trkpt>
      <trkpt lat="47.18068" lon="6.7474">
        <ele>885.7</ele>
      </trkpt>
      <trkpt lat="47.18057" lon="6.74719">
        <ele>884.4</ele>
      </trkpt>
      <trkpt lat="47.18033" lon="6.74701">
        <ele>883</ele>
      </trkpt>
      <trkpt lat="47.17981" lon="6.74667">
        <ele>881.4</ele>
      </trkpt>
      <trkpt lat="47.1797" lon="6.74659">
        <ele>881.7</ele>
      </trkpt>
      <trkpt lat="47.17953" lon="6.74647">
        <ele>883.2</ele>
      </trkpt>
      <trkpt lat="47.17932" lon="6.74626">
        <ele>885</ele>
      </trkpt>
      <trkpt lat="47.17926" lon="6.74593">
        <ele>885.8</ele>
      </trkpt>
      <trkpt lat="47.17906" lon="6.74534">
        <ele>889.7</ele>
      </trkpt>
      <trkpt lat="47.17889" lon="6.74486">
        <ele>893.3</ele>
      </trkpt>
      <trkpt lat="47.17874" lon="6.74444">
        <ele>894.2</ele>
      </trkpt>
      <trkpt lat="47.17866" lon="6.74413">
        <ele>894.2</ele>
      </trkpt>
      <trkpt lat="47.17851" lon="6.74336">
        <ele>893.9</ele>
      </trkpt>
      <trkpt lat="47.17842" lon="6.74308">
        <ele>893.5</ele>
      </trkpt>
      <trkpt lat="47.17835" lon="6.74284">
        <ele>893.1</ele>
      </trkpt>
      <trkpt lat="47.1783" lon="6.74271">
        <ele>892.7</ele>
      </trkpt>
      <trkpt lat="47.17813" lon="6.74239">
        <ele>891.2</ele>
      </trkpt>
      <trkpt lat="47.178" lon="6.74189">
        <ele>889</ele>
      </trkpt>
      <trkpt lat="47.17821" lon="6.7413">
        <ele>885.6</ele>
      </trkpt>
      <trkpt lat="47.17828" lon="6.74094">
        <ele>884.6</ele>
      </trkpt>
      <trkpt lat="47.17853" lon="6.74046">
        <ele>884.3</ele>
      </trkpt>
      <trkpt lat="47.17872" lon="6.74016">
        <ele>884.3</ele>
      </trkpt>
      <trkpt lat="47.1785" lon="6.73935">
        <ele>885</ele>
      </trkpt>
      <trkpt lat="47.17829" lon="6.73895">
        <ele>884.2</ele>
      </trkpt>
      <trkpt lat="47.17819" lon="6.73879">
        <ele>883.8</ele>
      </trkpt>
      <trkpt lat="47.1781" lon="6.73864">
        <ele>883.3</ele>
      </trkpt>
      <trkpt lat="47.17789" lon="6.73822">
        <ele>882.1</ele>
      </trkpt>
      <trkpt lat="47.17778" lon="6.73764">
        <ele>880.9</ele>
      </trkpt>
      <trkpt lat="47.17777" lon="6.73726">
        <ele>880.8</ele>
      </trkpt>
      <trkpt lat="47.17784" lon="6.73698">
        <ele>880.7</ele>
      </trkpt>
      <trkpt lat="47.17823" lon="6.73632">
        <ele>878.2</ele>
      </trkpt>
      <trkpt lat="47.17862" lon="6.73577">
        <ele>876.4</ele>
      </trkpt>
      <trkpt lat="47.17905" lon="6.73512">
        <ele>876.2</ele>
      </trkpt>
      <trkpt lat="47.17898" lon="6.73497">
        <ele>875.6</ele>
      </trkpt>
      <trkpt lat="47.17888" lon="6.7347">
        <ele>875.4</ele>
      </trkpt>
      <trkpt lat="47.17874" lon="6.73433">
        <ele>875.2</ele>
      </trkpt>
      <trkpt lat="47.17858" lon="6.7338">
        <ele>876.1</ele>
      </trkpt>
      <trkpt lat="47.17844" lon="6.73311">
        <ele>876.4</ele>
      </trkpt>
      <trkpt lat="47.17836" lon="6.73258">
        <ele>876.5</ele>
      </trkpt>
      <trkpt lat="47.17833" lon="6.73218">
        <ele>876.7</ele>
      </trkpt>
      <trkpt lat="47.17858" lon="6.73221">
        <ele>876.9</ele>
      </trkpt>
      <trkpt lat="47.17913" lon="6.73238">
        <ele>878.3</ele>
      </trkpt>
      <trkpt lat="47.17961" lon="6.73255">
        <ele>881.3</ele>
      </trkpt>
      <trkpt lat="47.17987" lon="6.73249">
        <ele>885.4</ele>
      </trkpt>
      <trkpt lat="47.18007" lon="6.7323">
        <ele>890.5</ele>
      </trkpt>
      <trkpt lat="47.18012" lon="6.73149">
        <ele>889.2</ele>
      </trkpt>
      <trkpt lat="47.18016" lon="6.73069">
        <ele>890.7</ele>
      </trkpt>
      <trkpt lat="47.18021" lon="6.72985">
        <ele>890.5</ele>
      </trkpt>
      <trkpt lat="47.18025" lon="6.72938">
        <ele>890.4</ele>
      </trkpt>
      <trkpt lat="47.18027" lon="6.72896">
        <ele>889.2</ele>
      </trkpt>
      <trkpt lat="47.18027" lon="6.72859">
        <ele>888</ele>
      </trkpt>
      <trkpt lat="47.18029" lon="6.72831">
        <ele>886.6</ele>
      </trkpt>
      <trkpt lat="47.18058" lon="6.72788">
        <ele>881.8</ele>
      </trkpt>
      <trkpt lat="47.1808" lon="6.72772">
        <ele>879.8</ele>
      </trkpt>
      <trkpt lat="47.18125" lon="6.72727">
        <ele>875.5</ele>
      </trkpt>
      <trkpt lat="47.18125" lon="6.72667">
        <ele>872.5</ele>
      </trkpt>
      <trkpt lat="47.1814" lon="6.72638">
        <ele>871.5</ele>
      </trkpt>
      <trkpt lat="47.18159" lon="6.72634">
        <ele>869</ele>
      </trkpt>
      <trkpt lat="47.18187" lon="6.72603">
        <ele>865</ele>
      </trkpt>
      <trkpt lat="47.18213" lon="6.72579">
        <ele>863.4</ele>
      </trkpt>
      <trkpt lat="47.18217" lon="6.72539">
        <ele>864.1</ele>
      </trkpt>
      <trkpt lat="47.18214" lon="6.72454">
        <ele>864.2</ele>
      </trkpt>
      <trkpt lat="47.18195" lon="6.72457">
        <ele>865</ele>
      </trkpt>
      <trkpt lat="47.18141" lon="6.72449">
        <ele>866.1</ele>
      </trkpt>
      <trkpt lat="47.18133" lon="6.72446">
        <ele>866.4</ele>
      </trkpt>
      <trkpt lat="47.18112" lon="6.72435">
        <ele>867.1</ele>
      </trkpt>
      <trkpt lat="47.18059" lon="6.72397">
        <ele>868.6</ele>
      </trkpt>
      <trkpt lat="47.18011" lon="6.72353">
        <ele>870.4</ele>
      </trkpt>
      <trkpt lat="47.17966" lon="6.72308">
        <ele>872.1</ele>
      </trkpt>
      <trkpt lat="47.17917" lon="6.72263">
        <ele>873.4</ele>
      </trkpt>
      <trkpt lat="47.17895" lon="6.72243">
        <ele>874.2</ele>
      </trkpt>
      <trkpt lat="47.1784" lon="6.72202">
        <ele>878.7</ele>
      </trkpt>
      <trkpt lat="47.17809" lon="6.7217">
        <ele>882</ele>
      </trkpt>
      <trkpt lat="47.17768" lon="6.72122">
        <ele>882.9</ele>
      </trkpt>
      <trkpt lat="47.17731" lon="6.72066">
        <ele>878</ele>
      </trkpt>
      <trkpt lat="47.17719" lon="6.72075">
        <ele>872.9</ele>
      </trkpt>
      <trkpt lat="47.17662" lon="6.72093">
        <ele>868.6</ele>
      </trkpt>
      <trkpt lat="47.17623" lon="6.72101">
        <ele>866</ele>
      </trkpt>
      <trkpt lat="47.17613" lon="6.72099">
        <ele>865.7</ele>
      </trkpt>
      <trkpt lat="47.17574" lon="6.72096">
        <ele>865.6</ele>
      </trkpt>
      <trkpt lat="47.17541" lon="6.72105">
        <ele>864.1</ele>
      </trkpt>
      <trkpt lat="47.17516" lon="6.72109">
        <ele>863.9</ele>
      </trkpt>
      <trkpt lat="47.17512" lon="6.72108">
        <ele>864</ele>
      </trkpt>
      <trkpt lat="47.17481" lon="6.7211">
        <ele>864.4</ele>
      </trkpt>
      <trkpt lat="47.17428" lon="6.72124">
        <ele>864.9</ele>
      </trkpt>
      <trkpt lat="47.1741" lon="6.7213">
        <ele>865.9</ele>
      </trkpt>
      <trkpt lat="47.1738" lon="6.72123">
        <ele>867.6</ele>
      </trkpt>
      <trkpt lat="47.17367" lon="6.72121">
        <ele>867.8</ele>
      </trkpt>
      <trkpt lat="47.1735" lon="6.72117">
        <ele>868</ele>
      </trkpt>
      <trkpt lat="47.17307" lon="6.72107">
        <ele>869</ele>
      </trkpt>
      <trkpt lat="47.17285" lon="6.72106">
        <ele>869.8</ele>
      </trkpt>
      <trkpt lat="47.17248" lon="6.72106">
        <ele>870.4</ele>
      </trkpt>
      <trkpt lat="47.17193" lon="6.72112">
        <ele>869.8</ele>
      </trkpt>
      <trkpt lat="47.17137" lon="6.7212">
        <ele>868.5</ele>
      </trkpt>
      <trkpt lat="47.1709" lon="6.72131">
        <ele>868.4</ele>
      </trkpt>
      <trkpt lat="47.17036" lon="6.7214">
        <ele>869.1</ele>
      </trkpt>
      <trkpt lat="47.17001" lon="6.72144">
        <ele>869</ele>
      </trkpt>
      <trkpt lat="47.16945" lon="6.7215">
        <ele>870.2</ele>
      </trkpt>
      <trkpt lat="47.16934" lon="6.72153">
        <ele>870.4</ele>
      </trkpt>
      <trkpt lat="47.16878" lon="6.72179">
        <ele>870.9</ele>
      </trkpt>
      <trkpt lat="47.1683" lon="6.72223">
        <ele>871.5</ele>
      </trkpt>
      <trkpt lat="47.16801" lon="6.72248">
        <ele>871.7</ele>
      </trkpt>
      <trkpt lat="47.16783" lon="6.7226">
        <ele>871.8</ele>
      </trkpt>
      <trkpt lat="47.16729" lon="6.72281">
        <ele>871.8</ele>
      </trkpt>
      <trkpt lat="47.16707" lon="6.72295">
        <ele>871.9</ele>
      </trkpt>
      <trkpt lat="47.16674" lon="6.72314">
        <ele>873.1</ele>
      </trkpt>
      <trkpt lat="47.16667" lon="6.72328">
        <ele>872.3</ele>
      </trkpt>
      <trkpt lat="47.16653" lon="6.72407">
        <ele>870.2</ele>
      </trkpt>
      <trkpt lat="47.16627" lon="6.72485">
        <ele>868.8</ele>
      </trkpt>
      <trkpt lat="47.16608" lon="6.72524">
        <ele>868.8</ele>
      </trkpt>
      <trkpt lat="47.16585" lon="6.72562">
        <ele>868.1</ele>
      </trkpt>
      <trkpt lat="47.16548" lon="6.72625">
        <ele>867.6</ele>
      </trkpt>
      <trkpt lat="47.16514" lon="6.72689">
        <ele>868.9</ele>
      </trkpt>
      <trkpt lat="47.16491" lon="6.72724">
        <ele>869.4</ele>
      </trkpt>
      <trkpt lat="47.16465" lon="6.72753">
        <ele>870.2</ele>
      </trkpt>
      <trkpt lat="47.1645" lon="6.72775">
        <ele>870.7</ele>
      </trkpt>
      <trkpt lat="47.16429" lon="6.72808">
        <ele>871.2</ele>
      </trkpt>
      <trkpt lat="47.1639" lon="6.7287">
        <ele>873.3</ele>
      </trkpt>
      <trkpt lat="47.16364" lon="6.72912">
        <ele>874.4</ele>
      </trkpt>
      <trkpt lat="47.16348" lon="6.729">
        <ele>873.6</ele>
      </trkpt>
      <trkpt lat="47.16322" lon="6.7289">
        <ele>874.2</ele>
      </trkpt>
      <trkpt lat="47.1628" lon="6.72887">
        <ele>876.3</ele>
      </trkpt>
      <trkpt lat="47.16267" lon="6.72916">
        <ele>876.6</ele>
      </trkpt>
    </trkseg>
  </trk>
</gpx>